Observation data for Persimmon Gap on 07/20/2019      Previous  Date  Next       Current Mesonet Observations  Soil Data  Daily Summary Page  Observations in Plain Language
KPG1 200500Z 13004KT 31/14 A2995 RMK A01 T03140139  RH  035%=      5-min Rain = 0
KPG1 200501Z 14004KT 31/14 A2995 RMK A01 T03140139  RH  035%=      5-min Rain = 0
KPG1 200502Z 14006KT 31/14 A2995 RMK A01 T03140139  RH  035%=      5-min Rain = 0
KPG1 200503Z 13005KT 32/14 A2995 RMK A01 T03150140  RH  035%=      5-min Rain = 0
KPG1 200504Z 14005KT 31/14 A2995 RMK A01 T03140140  RH  035%=      5-min Rain = 0
KPG1 200505Z 15003KT 31/14 A2995 RMK A01 T03140140  RH  035%=      5-min Rain = 0
KPG1 200506Z 14003KT 31/14 A2996 RMK A01 T03130140  RH  035%=      5-min Rain = 0
KPG1 200507Z 13003KT 31/14 A2996 RMK A01 T03130140  RH  035%=      5-min Rain = 0
KPG1 200508Z 12004KT 31/14 A2996 RMK A01 T03130140  RH  035%=      5-min Rain = 0
KPG1 200509Z 11005KT 31/14 A2996 RMK A01 T03130140  RH  035%=      5-min Rain = 0
KPG1 200510Z 11007KT 31/14 A2996 RMK A01 T03130140  RH  035%=      5-min Rain = 0
KPG1 200511Z 11006KT 32/14 A2996 RMK A01 T03150141  RH  035%=      5-min Rain = 0
KPG1 200512Z 13007KT 32/14 A2996 RMK A01 T03160140  RH  034%=      5-min Rain = 0
KPG1 200513Z 14006KT 32/14 A2996 RMK A01 T03160139  RH  034%=      5-min Rain = 0
KPG1 200514Z 15005KT 32/14 A2996 RMK A01 T03160140  RH  034%=      5-min Rain = 0
KPG1 200515Z 14007KT 32/14 A2996 RMK A01 T03150141  RH  035%=      5-min Rain = 0
KPG1 200516Z 15006KT 32/14 A2996 RMK A01 T03150141  RH  035%=      5-min Rain = 0
KPG1 200517Z 15004KT 31/14 A2996 RMK A01 T03140140  RH  035%=      5-min Rain = 0
KPG1 200518Z 14002KT 31/14 A2996 RMK A01 T03140140  RH  035%=      5-min Rain = 0
KPG1 200519Z 16001KT 31/14 A2996 RMK A01 T03130141  RH  035%=      5-min Rain = 0
KPG1 200520Z 12002KT 31/14 A2996 RMK A01 T03120141  RH  035%=      5-min Rain = 0
KPG1 200521Z 12002KT 31/14 A2996 RMK A01 T03110141  RH  035%=      5-min Rain = 0
KPG1 200522Z 12002KT 31/14 A2996 RMK A01 T03100142  RH  036%=      5-min Rain = 0
KPG1 200523Z 14006KT 31/14 A2996 RMK A01 T03090140  RH  036%=      5-min Rain = 0
KPG1 200524Z 12007KT 31/14 A2996 RMK A01 T03090140  RH  036%=      5-min Rain = 0
KPG1 200525Z 13008KT 31/14 A2996 RMK A01 T03100140  RH  036%=      5-min Rain = 0
KPG1 200526Z 12008KT 31/14 A2996 RMK A01 T03110140  RH  035%=      5-min Rain = 0
KPG1 200527Z 12011KT 31/14 A2996 RMK A01 T03120140  RH  035%=      5-min Rain = 0
KPG1 200528Z 13009KT 31/14 A2996 RMK A01 T03130140  RH  035%=      5-min Rain = 0
KPG1 200529Z 12008KT 31/14 A2996 RMK A01 T03140140  RH  035%=      5-min Rain = 0
KPG1 200530Z 12007KT 31/14 A2996 RMK A01 T03140140  RH  035%=      5-min Rain = 0
KPG1 200531Z 12006KT 31/14 A2996 RMK A01 T03140140  RH  035%=      5-min Rain = 0
KPG1 200532Z 12008KT 31/14 A2996 RMK A01 T03140140  RH  035%=      5-min Rain = 0
KPG1 200533Z 12009KT 31/14 A2996 RMK A01 T03140140  RH  035%=      5-min Rain = 0
KPG1 200534Z 12006KT 31/14 A2996 RMK A01 T03140139  RH  035%=      5-min Rain = 0
KPG1 200535Z 13008KT 31/14 A2996 RMK A01 T03140139  RH  035%=      5-min Rain = 0
KPG1 200536Z 13008KT 31/14 A2996 RMK A01 T03140139  RH  034%=      5-min Rain = 0
KPG1 200537Z 13009KT 31/14 A2996 RMK A01 T03140139  RH  034%=      5-min Rain = 0
KPG1 200538Z 13010KT 31/14 A2996 RMK A01 T03140139  RH  034%=      5-min Rain = 0
KPG1 200539Z 12008KT 31/14 A2996 RMK A01 T03140139  RH  034%=      5-min Rain = 0
KPG1 200540Z 13009KT 32/14 A2996 RMK A01 T03150139  RH  034%=      5-min Rain = 0
KPG1 200541Z 12008KT 32/14 A2996 RMK A01 T03150139  RH  034%=      5-min Rain = 0
KPG1 200542Z 12006KT 32/14 A2995 RMK A01 T03150139  RH  034%=      5-min Rain = 0
KPG1 200543Z 14007KT 31/14 A2995 RMK A01 T03140138  RH  034%=      5-min Rain = 0
KPG1 200544Z 13006KT 31/14 A2996 RMK A01 T03140138  RH  034%=      5-min Rain = 0
KPG1 200545Z 13007KT 31/14 A2996 RMK A01 T03140138  RH  034%=      5-min Rain = 0
KPG1 200546Z 12009KT 31/14 A2995 RMK A01 T03140139  RH  035%=      5-min Rain = 0
KPG1 200547Z 13007KT 31/14 A2995 RMK A01 T03130138  RH  034%=      5-min Rain = 0
KPG1 200548Z 13009KT 31/14 A2995 RMK A01 T03130138  RH  034%=      5-min Rain = 0
KPG1 200549Z 14006KT 31/14 A2995 RMK A01 T03130137  RH  034%=      5-min Rain = 0
KPG1 200550Z 13004KT 31/14 A2995 RMK A01 T03130137  RH  034%=      5-min Rain = 0
KPG1 200551Z 14005KT 31/14 A2996 RMK A01 T03130138  RH  035%=      5-min Rain = 0
KPG1 200552Z 12003KT 31/14 A2996 RMK A01 T03120138  RH  035%=      5-min Rain = 0
KPG1 200553Z 13004KT 31/14 A2996 RMK A01 T03110138  RH  035%=      5-min Rain = 0
KPG1 200554Z 13005KT 31/14 A2996 RMK A01 T03100138  RH  035%=      5-min Rain = 0
KPG1 200555Z 12005KT 31/14 A2996 RMK A01 T03100138  RH  035%=      5-min Rain = 0
KPG1 200556Z 12005KT 31/14 A2996 RMK A01 T03100137  RH  035%=      5-min Rain = 0
KPG1 200557Z 13006KT 31/14 A2996 RMK A01 T03100137  RH  035%=      5-min Rain = 0
KPG1 200558Z 13006KT 31/14 A2996 RMK A01 T03100136  RH  035%=      5-min Rain = 0
KPG1 200559Z 14005KT 31/14 A2996 RMK A01 T03100136  RH  035%=      5-min Rain = 0
KPG1 200600Z 13004KT 31/14 A2996 RMK A01 T03100135  RH  034%=      5-min Rain = 0
KPG1 200601Z 12006KT 31/14 A2996 RMK A01 T03100135  RH  034%=      5-min Rain = 0
KPG1 200602Z 14007KT 31/14 A2996 RMK A01 T03100135  RH  034%=      5-min Rain = 0
KPG1 200603Z 12007KT 31/13 A2996 RMK A01 T03100134  RH  034%=      5-min Rain = 0
KPG1 200604Z 12006KT 31/13 A2996 RMK A01 T03100133  RH  034%=      5-min Rain = 0
KPG1 200605Z 13006KT 31/13 A2996 RMK A01 T03100133  RH  034%=      5-min Rain = 0
KPG1 200606Z 14007KT 31/13 A2996 RMK A01 T03100133  RH  034%=      5-min Rain = 0
KPG1 200607Z 13007KT 31/13 A2995 RMK A01 T03100132  RH  034%=      5-min Rain = 0
KPG1 200608Z 12007KT 31/13 A2995 RMK A01 T03100132  RH  034%=      5-min Rain = 0
KPG1 200609Z 12006KT 31/13 A2995 RMK A01 T03100132  RH  034%=      5-min Rain = 0
KPG1 200610Z 15009KT 31/13 A2995 RMK A01 T03100131  RH  034%=      5-min Rain = 0
KPG1 200611Z 13008KT 31/13 A2995 RMK A01 T03100131  RH  034%=      5-min Rain = 0
KPG1 200612Z 14006KT 31/13 A2995 RMK A01 T03100131  RH  034%=      5-min Rain = 0
KPG1 200613Z 14005KT 31/13 A2995 RMK A01 T03100131  RH  034%=      5-min Rain = 0
KPG1 200614Z 12005KT 31/13 A2995 RMK A01 T03090131  RH  034%=      5-min Rain = 0
KPG1 200615Z 11006KT 31/13 A2995 RMK A01 T03080131  RH  034%=      5-min Rain = 0
KPG1 200616Z 13005KT 31/13 A2995 RMK A01 T03080131  RH  034%=      5-min Rain = 0
KPG1 200617Z 13007KT 31/13 A2995 RMK A01 T03080131  RH  034%=      5-min Rain = 0
KPG1 200618Z 15006KT 31/13 A2995 RMK A01 T03080130  RH  034%=      5-min Rain = 0
KPG1 200619Z 12006KT 31/13 A2995 RMK A01 T03080131  RH  034%=      5-min Rain = 0
KPG1 200620Z 12004KT 31/13 A2995 RMK A01 T03080131  RH  034%=      5-min Rain = 0
KPG1 200621Z 13005KT 31/13 A2995 RMK A01 T03080131  RH  034%=      5-min Rain = 0
KPG1 200622Z 13005KT 31/13 A2995 RMK A01 T03070131  RH  034%=      5-min Rain = 0
KPG1 200623Z 13007KT 31/13 A2995 RMK A01 T03060130  RH  034%=      5-min Rain = 0
KPG1 200624Z 13007KT 31/13 A2995 RMK A01 T03070129  RH  034%=      5-min Rain = 0
KPG1 200625Z 14006KT 31/13 A2995 RMK A01 T03070129  RH  034%=      5-min Rain = 0
KPG1 200626Z 12004KT 31/13 A2995 RMK A01 T03070129  RH  034%=      5-min Rain = 0
KPG1 200627Z 14008KT 31/13 A2995 RMK A01 T03070129  RH  034%=      5-min Rain = 0
KPG1 200628Z 14008KT 31/13 A2995 RMK A01 T03070127  RH  033%=      5-min Rain = 0
KPG1 200629Z 12007KT 31/13 A2995 RMK A01 T03070128  RH  033%=      5-min Rain = 0
KPG1 200630Z 12006KT 31/13 A2995 RMK A01 T03070128  RH  033%=      5-min Rain = 0
KPG1 200631Z 12007KT 31/13 A2995 RMK A01 T03060128  RH  034%=      5-min Rain = 0
KPG1 200632Z 13008KT 31/13 A2995 RMK A01 T03060127  RH  033%=      5-min Rain = 0
KPG1 200633Z 13007KT 31/13 A2995 RMK A01 T03060127  RH  033%=      5-min Rain = 0
KPG1 200634Z 12004KT 31/13 A2995 RMK A01 T03060127  RH  033%=      5-min Rain = 0
KPG1 200635Z 12004KT 31/13 A2995 RMK A01 T03060127  RH  033%=      5-min Rain = 0
KPG1 200636Z 13008KT 31/13 A2995 RMK A01 T03050127  RH  034%=      5-min Rain = 0
KPG1 200637Z 13008KT 31/13 A2995 RMK A01 T03050126  RH  033%=      5-min Rain = 0
KPG1 200638Z 13007KT 31/13 A2995 RMK A01 T03060126  RH  033%=      5-min Rain = 0
KPG1 200639Z 13006KT 31/13 A2995 RMK A01 T03070126  RH  033%=      5-min Rain = 0
KPG1 200640Z 11007KT 31/13 A2995 RMK A01 T03070126  RH  033%=      5-min Rain = 0
KPG1 200641Z 13008KT 31/13 A2995 RMK A01 T03070126  RH  033%=      5-min Rain = 0
KPG1 200642Z 13008KT 31/13 A2995 RMK A01 T03070125  RH  033%=      5-min Rain = 0
KPG1 200643Z 11006KT 31/13 A2995 RMK A01 T03070125  RH  033%=      5-min Rain = 0
KPG1 200644Z 13007G12KT 31/13 A2995 RMK A01 T03070126  RH  033%=      5-min Rain = 0
KPG1 200645Z 14011KT 31/13 A2995 RMK A01 T03070125  RH  033%=      5-min Rain = 0
KPG1 200646Z 12007KT 31/13 A2995 RMK A01 T03070125  RH  033%=      5-min Rain = 0
KPG1 200647Z 13007KT 31/13 A2995 RMK A01 T03080125  RH  033%=      5-min Rain = 0
KPG1 200648Z 13008G13KT 31/13 A2995 RMK A01 T03070125  RH  033%=      5-min Rain = 0
KPG1 200649Z 13013KT 31/13 A2995 RMK A01 T03070125  RH  033%=      5-min Rain = 0
KPG1 200650Z 14009KT 31/12 A2995 RMK A01 T03070124  RH  033%=      5-min Rain = 0
KPG1 200651Z 14007KT 31/12 A2995 RMK A01 T03070124  RH  033%=      5-min Rain = 0
KPG1 200652Z 12006KT 31/13 A2995 RMK A01 T03070125  RH  033%=      5-min Rain = 0
KPG1 200653Z 12007KT 31/12 A2995 RMK A01 T03070124  RH  033%=      5-min Rain = 0
KPG1 200654Z 14006KT 31/12 A2995 RMK A01 T03070124  RH  033%=      5-min Rain = 0
KPG1 200655Z 13006KT 31/12 A2995 RMK A01 T03060124  RH  033%=      5-min Rain = 0
KPG1 200656Z 14006KT 31/12 A2995 RMK A01 T03060124  RH  033%=      5-min Rain = 0
KPG1 200657Z 14006KT 31/12 A2995 RMK A01 T03070124  RH  033%=      5-min Rain = 0
KPG1 200658Z 13007KT 31/12 A2995 RMK A01 T03050124  RH  033%=      5-min Rain = 0
KPG1 200659Z 13007KT 31/12 A2995 RMK A01 T03050124  RH  033%=      5-min Rain = 0
KPG1 200700Z 13007KT 31/12 A2995 RMK A01 T03050123  RH  033%=      5-min Rain = 0
KPG1 200701Z 13009KT 31/12 A2995 RMK A01 T03050123  RH  033%=      5-min Rain = 0
KPG1 200702Z 14006KT 31/12 A2995 RMK A01 T03050123  RH  033%=      5-min Rain = 0
KPG1 200703Z 13008KT 31/12 A2995 RMK A01 T03050122  RH  033%=      5-min Rain = 0
KPG1 200704Z 13008KT 31/12 A2995 RMK A01 T03050122  RH  033%=      5-min Rain = 0
KPG1 200705Z 13007KT 31/12 A2995 RMK A01 T03050123  RH  033%=      5-min Rain = 0
KPG1 200706Z 13008KT 31/12 A2995 RMK A01 T03050123  RH  033%=      5-min Rain = 0
KPG1 200707Z 13006KT 31/12 A2995 RMK A01 T03050123  RH  033%=      5-min Rain = 0
KPG1 200708Z 13007KT 30/12 A2995 RMK A01 T03040122  RH  033%=      5-min Rain = 0
KPG1 200709Z 13010KT 30/12 A2995 RMK A01 T03040122  RH  033%=      5-min Rain = 0
KPG1 200710Z 14008KT 30/12 A2995 RMK A01 T03040122  RH  033%=      5-min Rain = 0
KPG1 200711Z 14007KT 30/12 A2995 RMK A01 T03040122  RH  033%=      5-min Rain = 0
KPG1 200712Z 13008KT 30/12 A2995 RMK A01 T03040122  RH  033%=      5-min Rain = 0
KPG1 200713Z 13006KT 30/12 A2995 RMK A01 T03040121  RH  033%=      5-min Rain = 0
KPG1 200714Z 13006KT 30/12 A2995 RMK A01 T03040121  RH  033%=      5-min Rain = 0
KPG1 200715Z 14006KT 30/12 A2995 RMK A01 T03040121  RH  033%=      5-min Rain = 0
KPG1 200716Z 13007KT 30/12 A2995 RMK A01 T03040122  RH  033%=      5-min Rain = 0
KPG1 200717Z 14008KT 30/12 A2995 RMK A01 T03030122  RH  033%=      5-min Rain = 0
KPG1 200718Z 14006KT 30/12 A2995 RMK A01 T03030122  RH  033%=      5-min Rain = 0
KPG1 200719Z 14005KT 30/12 A2995 RMK A01 T03030122  RH  033%=      5-min Rain = 0
KPG1 200720Z 13005KT 30/12 A2995 RMK A01 T03020122  RH  033%=      5-min Rain = 0
KPG1 200721Z 14007KT 30/12 A2995 RMK A01 T03020122  RH  033%=      5-min Rain = 0
KPG1 200722Z 13007KT 30/12 A2995 RMK A01 T03020122  RH  033%=      5-min Rain = 0
KPG1 200723Z 14008KT 30/12 A2995 RMK A01 T03020121  RH  033%=      5-min Rain = 0
KPG1 200724Z 12006KT 30/12 A2995 RMK A01 T03020121  RH  033%=      5-min Rain = 0
KPG1 200725Z 12006KT 30/12 A2995 RMK A01 T03030121  RH  033%=      5-min Rain = 0
KPG1 200726Z 14005KT 30/12 A2995 RMK A01 T03020122  RH  033%=      5-min Rain = 0
KPG1 200727Z 14005KT 30/12 A2995 RMK A01 T03010122  RH  033%=      5-min Rain = 0
KPG1 200728Z 14006KT 30/12 A2995 RMK A01 T03010122  RH  033%=      5-min Rain = 0
KPG1 200729Z 13006KT 30/12 A2995 RMK A01 T03010122  RH  033%=      5-min Rain = 0
KPG1 200730Z 12007KT 30/12 A2995 RMK A01 T03010122  RH  033%=      5-min Rain = 0
KPG1 200731Z 13008KT 30/12 A2995 RMK A01 T03010122  RH  033%=      5-min Rain = 0
KPG1 200732Z 13008KT 30/12 A2995 RMK A01 T03010122  RH  033%=      5-min Rain = 0
KPG1 200733Z 13007KT 30/12 A2995 RMK A01 T03010122  RH  033%=      5-min Rain = 0
KPG1 200734Z 12010KT 30/12 A2995 RMK A01 T03010122  RH  033%=      5-min Rain = 0
KPG1 200735Z 15008KT 30/12 A2995 RMK A01 T03010122  RH  033%=      5-min Rain = 0
KPG1 200736Z 14007KT 30/12 A2995 RMK A01 T03010122  RH  033%=      5-min Rain = 0
KPG1 200737Z 13008KT 30/12 A2995 RMK A01 T03000122  RH  033%=      5-min Rain = 0
KPG1 200738Z 14007KT 30/12 A2995 RMK A01 T03010121  RH  033%=      5-min Rain = 0
KPG1 200739Z 13008KT 30/12 A2995 RMK A01 T03010122  RH  033%=      5-min Rain = 0
KPG1 200740Z 13005KT 30/12 A2995 RMK A01 T03010122  RH  033%=      5-min Rain = 0
KPG1 200741Z 11004KT 30/12 A2995 RMK A01 T03010122  RH  033%=      5-min Rain = 0
KPG1 200742Z 11006KT 30/12 A2995 RMK A01 T03010122  RH  033%=      5-min Rain = 0
KPG1 200743Z 12005KT 30/12 A2995 RMK A01 T03000122  RH  033%=      5-min Rain = 0
KPG1 200744Z 15007KT 30/12 A2995 RMK A01 T02990122  RH  034%=      5-min Rain = 0
KPG1 200745Z 13005KT 30/12 A2995 RMK A01 T02990122  RH  034%=      5-min Rain = 0
KPG1 200746Z 14004KT 30/12 A2994 RMK A01 T02990122  RH  034%=      5-min Rain = 0
KPG1 200747Z 11004KT 30/12 A2995 RMK A01 T02990122  RH  034%=      5-min Rain = 0
KPG1 200748Z 11006KT 30/12 A2994 RMK A01 T02990122  RH  034%=      5-min Rain = 0
KPG1 200749Z 13007KT 30/12 A2994 RMK A01 T02980122  RH  034%=      5-min Rain = 0
KPG1 200750Z 15007KT 30/12 A2994 RMK A01 T02980123  RH  034%=      5-min Rain = 0
KPG1 200751Z 17005KT 30/12 A2994 RMK A01 T02980123  RH  034%=      5-min Rain = 0
KPG1 200752Z 15006KT 30/12 A2994 RMK A01 T02990122  RH  034%=      5-min Rain = 0
KPG1 200753Z 16005KT 30/12 A2994 RMK A01 T03000122  RH  034%=      5-min Rain = 0
KPG1 200754Z 14002KT 30/12 A2994 RMK A01 T03000123  RH  034%=      5-min Rain = 0
KPG1 200755Z 13005KT 30/12 A2994 RMK A01 T02990123  RH  034%=      5-min Rain = 0
KPG1 200756Z 13004KT 30/12 A2994 RMK A01 T02980123  RH  034%=      5-min Rain = 0
KPG1 200757Z 12005KT 30/12 A2994 RMK A01 T02970123  RH  034%=      5-min Rain = 0
KPG1 200758Z 13008KT 30/12 A2994 RMK A01 T02970123  RH  034%=      5-min Rain = 0
KPG1 200759Z 14010KT 30/12 A2994 RMK A01 T02960123  RH  034%=      5-min Rain = 0
KPG1 200800Z 13006KT 30/12 A2994 RMK A01 T02960123  RH  034%=      5-min Rain = 0
KPG1 200801Z 14009KT 30/12 A2994 RMK A01 T02970123  RH  034%=      5-min Rain = 0
KPG1 200802Z 14007KT 30/12 A2994 RMK A01 T02980123  RH  034%=      5-min Rain = 0
KPG1 200803Z 17008KT 30/12 A2994 RMK A01 T02980123  RH  034%=      5-min Rain = 0
KPG1 200804Z 18007KT 30/12 A2994 RMK A01 T02970123  RH  034%=      5-min Rain = 0
KPG1 200805Z 18006KT 30/12 A2994 RMK A01 T02970124  RH  034%=      5-min Rain = 0
KPG1 200806Z 17006KT 30/12 A2994 RMK A01 T02970123  RH  034%=      5-min Rain = 0
KPG1 200807Z 19004KT 30/12 A2994 RMK A01 T02970123  RH  034%=      5-min Rain = 0
KPG1 200808Z 22004KT 30/12 A2994 RMK A01 T02960124  RH  035%=      5-min Rain = 0
KPG1 200809Z 19007KT 29/12 A2994 RMK A01 T02940124  RH  035%=      5-min Rain = 0
KPG1 200810Z 19007KT 29/12 A2994 RMK A01 T02930124  RH  035%=      5-min Rain = 0
KPG1 200811Z 16007KT 29/12 A2994 RMK A01 T02930124  RH  035%=      5-min Rain = 0
KPG1 200812Z 17009KT 29/12 A2994 RMK A01 T02920123  RH  035%=      5-min Rain = 0
KPG1 200813Z 17006KT 29/12 A2994 RMK A01 T02930123  RH  035%=      5-min Rain = 0
KPG1 200814Z 19005KT 29/12 A2994 RMK A01 T02940124  RH  035%=      5-min Rain = 0
KPG1 200815Z 17006KT 29/12 A2994 RMK A01 T02940124  RH  035%=      5-min Rain = 0
KPG1 200816Z 18006KT 29/13 A2994 RMK A01 T02930125  RH  035%=      5-min Rain = 0
KPG1 200817Z 18006KT 29/12 A2994 RMK A01 T02910124  RH  036%=      5-min Rain = 0
KPG1 200818Z 19006KT 29/13 A2994 RMK A01 T02910125  RH  036%=      5-min Rain = 0
KPG1 200819Z 18007KT 29/13 A2994 RMK A01 T02910125  RH  036%=      5-min Rain = 0
KPG1 200820Z 19004KT 29/12 A2994 RMK A01 T02900124  RH  036%=      5-min Rain = 0
KPG1 200821Z 18006KT 29/12 A2994 RMK A01 T02900124  RH  036%=      5-min Rain = 0
KPG1 200822Z 18005KT 29/12 A2994 RMK A01 T02900124  RH  036%=      5-min Rain = 0
KPG1 200823Z 16006KT 29/12 A2994 RMK A01 T02900124  RH  036%=      5-min Rain = 0
KPG1 200824Z 16007KT 29/12 A2994 RMK A01 T02900124  RH  036%=      5-min Rain = 0
KPG1 200825Z 15007KT 29/12 A2994 RMK A01 T02900124  RH  036%=      5-min Rain = 0
KPG1 200826Z 17007KT 29/12 A2994 RMK A01 T02910124  RH  036%=      5-min Rain = 0
KPG1 200827Z 19005KT 29/13 A2994 RMK A01 T02910125  RH  036%=      5-min Rain = 0
KPG1 200828Z 19003KT 29/13 A2994 RMK A01 T02890126  RH  036%=      5-min Rain = 0
KPG1 200829Z 18004KT 29/13 A2994 RMK A01 T02880125  RH  037%=      5-min Rain = 0
KPG1 200830Z 17007KT 29/13 A2994 RMK A01 T02870125  RH  037%=      5-min Rain = 0
KPG1 200831Z 17009KT 29/13 A2994 RMK A01 T02860125  RH  037%=      5-min Rain = 0
KPG1 200832Z 17006KT 29/12 A2994 RMK A01 T02860124  RH  037%=      5-min Rain = 0
KPG1 200833Z 18008KT 29/13 A2994 RMK A01 T02870125  RH  037%=      5-min Rain = 0
KPG1 200834Z 18012KT 29/13 A2994 RMK A01 T02880125  RH  037%=      5-min Rain = 0
KPG1 200835Z 18010KT 29/12 A2994 RMK A01 T02890124  RH  036%=      5-min Rain = 0
KPG1 200836Z 19005KT 29/12 A2994 RMK A01 T02900124  RH  036%=      5-min Rain = 0
KPG1 200837Z 20006KT 29/13 A2994 RMK A01 T02900125  RH  036%=      5-min Rain = 0
KPG1 200838Z 18006KT 29/13 A2994 RMK A01 T02900125  RH  036%=      5-min Rain = 0
KPG1 200839Z 18007KT 29/13 A2994 RMK A01 T02890125  RH  036%=      5-min Rain = 0
KPG1 200840Z 19005KT 29/13 A2994 RMK A01 T02890125  RH  036%=      5-min Rain = 0
KPG1 200841Z 18005KT 29/13 A2994 RMK A01 T02890125  RH  036%=      5-min Rain = 0
KPG1 200842Z 18005KT 29/13 A2994 RMK A01 T02890125  RH  036%=      5-min Rain = 0
KPG1 200843Z 19004KT 29/13 A2994 RMK A01 T02880125  RH  037%=      5-min Rain = 0
KPG1 200844Z 19005KT 29/13 A2994 RMK A01 T02870125  RH  037%=      5-min Rain = 0
KPG1 200845Z 20007G12KT 29/13 A2994 RMK A01 T02870125  RH  037%=      5-min Rain = 0
KPG1 200846Z 19010KT 29/13 A2994 RMK A01 T02860125  RH  037%=      5-min Rain = 0
KPG1 200847Z 17008KT 29/12 A2994 RMK A01 T02870124  RH  037%=      5-min Rain = 0
KPG1 200848Z 18005KT 29/13 A2994 RMK A01 T02880125  RH  037%=      5-min Rain = 0
KPG1 200849Z 14005KT 29/13 A2994 RMK A01 T02870125  RH  037%=      5-min Rain = 0
KPG1 200850Z 20004KT 29/13 A2994 RMK A01 T02870125  RH  037%=      5-min Rain = 0
KPG1 200851Z 20005KT 29/13 A2994 RMK A01 T02860126  RH  037%=      5-min Rain = 0
KPG1 200852Z 20005KT 29/13 A2994 RMK A01 T02860126  RH  037%=      5-min Rain = 0
KPG1 200853Z 20007KT 29/13 A2994 RMK A01 T02850125  RH  037%=      5-min Rain = 0
KPG1 200854Z 20006KT 29/13 A2994 RMK A01 T02850125  RH  037%=      5-min Rain = 0
KPG1 200855Z 19007KT 28/13 A2994 RMK A01 T02840126  RH  037%=      5-min Rain = 0
KPG1 200856Z 19006KT 28/13 A2994 RMK A01 T02840125  RH  037%=      5-min Rain = 0
KPG1 200857Z 19006KT 28/13 A2994 RMK A01 T02840125  RH  037%=      5-min Rain = 0
KPG1 200858Z 21006KT 28/13 A2994 RMK A01 T02840126  RH  038%=      5-min Rain = 0
KPG1 200859Z 20007KT 28/13 A2994 RMK A01 T02830126  RH  038%=      5-min Rain = 0
KPG1 200900Z 20009KT 28/13 A2994 RMK A01 T02820125  RH  038%=      5-min Rain = 0
KPG1 200901Z 21006KT 28/13 A2994 RMK A01 T02830125  RH  038%=      5-min Rain = 0
KPG1 200902Z 21007KT 28/13 A2994 RMK A01 T02830126  RH  038%=      5-min Rain = 0
KPG1 200903Z 21007KT 28/13 A2994 RMK A01 T02810126  RH  038%=      5-min Rain = 0
KPG1 200904Z 22007KT 28/13 A2994 RMK A01 T02810126  RH  038%=      5-min Rain = 0
KPG1 200905Z 19008KT 28/13 A2994 RMK A01 T02800126  RH  038%=      5-min Rain = 0
KPG1 200906Z 20009KT 28/13 A2994 RMK A01 T02800125  RH  038%=      5-min Rain = 0
KPG1 200907Z 20007KT 28/13 A2994 RMK A01 T02810125  RH  038%=      5-min Rain = 0
KPG1 200908Z 20006KT 28/13 A2993 RMK A01 T02820125  RH  038%=      5-min Rain = 0
KPG1 200909Z 20007KT 28/13 A2994 RMK A01 T02810125  RH  038%=      5-min Rain = 0
KPG1 200910Z 19008KT 28/13 A2994 RMK A01 T02810125  RH  038%=      5-min Rain = 0
KPG1 200911Z 18006KT 28/13 A2994 RMK A01 T02810125  RH  038%=      5-min Rain = 0
KPG1 200912Z 18005KT 28/13 A2994 RMK A01 T02810125  RH  038%=      5-min Rain = 0
KPG1 200913Z 19004KT 28/13 A2994 RMK A01 T02810126  RH  038%=      5-min Rain = 0
KPG1 200914Z 20005KT 28/13 A2994 RMK A01 T02800126  RH  039%=      5-min Rain = 0
KPG1 200915Z 18006KT 28/13 A2994 RMK A01 T02790126  RH  039%=      5-min Rain = 0
KPG1 200916Z 17005KT 28/13 A2994 RMK A01 T02780125  RH  039%=      5-min Rain = 0
KPG1 200917Z 16005KT 28/13 A2994 RMK A01 T02780125  RH  039%=      5-min Rain = 0
KPG1 200918Z 16003KT 28/13 A2994 RMK A01 T02780125  RH  039%=      5-min Rain = 0
KPG1 200919Z 16004KT 28/13 A2994 RMK A01 T02780125  RH  039%=      5-min Rain = 0
KPG1 200920Z 17005KT 28/13 A2994 RMK A01 T02780125  RH  039%=      5-min Rain = 0
KPG1 200921Z 17006KT 28/13 A2994 RMK A01 T02780125  RH  039%=      5-min Rain = 0
KPG1 200922Z 17007KT 28/13 A2994 RMK A01 T02780125  RH  039%=      5-min Rain = 0
KPG1 200923Z 16006KT 28/13 A2994 RMK A01 T02790125  RH  038%=      5-min Rain = 0
KPG1 200924Z 17006KT 28/13 A2994 RMK A01 T02800125  RH  038%=      5-min Rain = 0
KPG1 200925Z 17006KT 28/13 A2994 RMK A01 T02800125  RH  038%=      5-min Rain = 0
KPG1 200926Z 17006KT 28/13 A2994 RMK A01 T02800125  RH  038%=      5-min Rain = 0
KPG1 200927Z 17005KT 28/13 A2994 RMK A01 T02800125  RH  038%=      5-min Rain = 0
KPG1 200928Z 17005KT 28/13 A2994 RMK A01 T02800126  RH  039%=      5-min Rain = 0
KPG1 200929Z 17005KT 28/13 A2994 RMK A01 T02790125  RH  039%=      5-min Rain = 0
KPG1 200930Z 18004KT 28/13 A2994 RMK A01 T02790125  RH  039%=      5-min Rain = 0
KPG1 200931Z 18003KT 28/13 A2994 RMK A01 T02780126  RH  039%=      5-min Rain = 0
KPG1 200932Z 18004KT 28/13 A2993 RMK A01 T02770126  RH  039%=      5-min Rain = 0
KPG1 200933Z 18003KT 28/13 A2993 RMK A01 T02760126  RH  039%=      5-min Rain = 0
KPG1 200934Z 16004KT 28/13 A2993 RMK A01 T02760125  RH  039%=      5-min Rain = 0
KPG1 200935Z 16004KT 28/13 A2993 RMK A01 T02760125  RH  039%=      5-min Rain = 0
KPG1 200936Z 15006KT 28/13 A2993 RMK A01 T02760126  RH  039%=      5-min Rain = 0
KPG1 200937Z 15006KT 28/13 A2993 RMK A01 T02750125  RH  039%=      5-min Rain = 0
KPG1 200938Z 16005KT 28/13 A2993 RMK A01 T02760125  RH  039%=      5-min Rain = 0
KPG1 200939Z 15004KT 28/13 A2993 RMK A01 T02760125  RH  039%=      5-min Rain = 0
KPG1 200940Z 15005KT 28/13 A2993 RMK A01 T02760125  RH  039%=      5-min Rain = 0
KPG1 200941Z 15004KT 28/13 A2993 RMK A01 T02760125  RH  039%=      5-min Rain = 0
KPG1 200942Z 15004KT 28/13 A2993 RMK A01 T02760126  RH  039%=      5-min Rain = 0
KPG1 200943Z 14006KT 28/13 A2993 RMK A01 T02760126  RH  039%=      5-min Rain = 0
KPG1 200944Z 14006KT 28/13 A2993 RMK A01 T02760125  RH  039%=      5-min Rain = 0
KPG1 200945Z 16005KT 28/13 A2994 RMK A01 T02760126  RH  039%=      5-min Rain = 0
KPG1 200946Z 16006KT 28/13 A2994 RMK A01 T02760126  RH  039%=      5-min Rain = 0
KPG1 200947Z 15006KT 28/13 A2994 RMK A01 T02760126  RH  039%=      5-min Rain = 0
KPG1 200948Z 14006KT 28/13 A2994 RMK A01 T02760126  RH  039%=      5-min Rain = 0
KPG1 200949Z 14004KT 28/13 A2994 RMK A01 T02760126  RH  039%=      5-min Rain = 0
KPG1 200950Z 14005KT 28/13 A2994 RMK A01 T02760126  RH  040%=      5-min Rain = 0
KPG1 200951Z 15005KT 28/13 A2994 RMK A01 T02760126  RH  039%=      5-min Rain = 0
KPG1 200952Z 15005KT 28/13 A2994 RMK A01 T02760126  RH  039%=      5-min Rain = 0
KPG1 200953Z 14005KT 28/13 A2994 RMK A01 T02760126  RH  039%=      5-min Rain = 0
KPG1 200954Z 14007KT 28/13 A2994 RMK A01 T02760126  RH  039%=      5-min Rain = 0
KPG1 200955Z 13005KT 28/13 A2994 RMK A01 T02760126  RH  039%=      5-min Rain = 0
KPG1 200956Z 12007KT 28/13 A2994 RMK A01 T02760126  RH  039%=      5-min Rain = 0
KPG1 200957Z 14007KT 28/13 A2994 RMK A01 T02760126  RH  039%=      5-min Rain = 0
KPG1 200958Z 14006KT 28/13 A2994 RMK A01 T02760126  RH  039%=      5-min Rain = 0
KPG1 200959Z 13005KT 28/13 A2994 RMK A01 T02760125  RH  039%=      5-min Rain = 0
KPG1 201000Z 12005KT 28/13 A2994 RMK A01 T02760126  RH  039%=      5-min Rain = 0
KPG1 201001Z 13006KT 28/13 A2994 RMK A01 T02760126  RH  039%=      5-min Rain = 0
KPG1 201002Z 14007KT 28/13 A2994 RMK A01 T02760126  RH  039%=      5-min Rain = 0
KPG1 201003Z 15005KT 28/13 A2994 RMK A01 T02770126  RH  039%=      5-min Rain = 0
KPG1 201004Z 12004KT 28/13 A2994 RMK A01 T02780126  RH  039%=      5-min Rain = 0
KPG1 201005Z 14005KT 28/13 A2994 RMK A01 T02780126  RH  039%=      5-min Rain = 0
KPG1 201006Z 15005KT 28/13 A2994 RMK A01 T02780127  RH  039%=      5-min Rain = 0
KPG1 201007Z 15005KT 28/13 A2994 RMK A01 T02770126  RH  039%=      5-min Rain = 0
KPG1 201008Z 14004KT 28/13 A2994 RMK A01 T02770126  RH  039%=      5-min Rain = 0
KPG1 201009Z 15005KT 28/13 A2994 RMK A01 T02770126  RH  039%=      5-min Rain = 0
KPG1 201010Z 15006KT 28/13 A2994 RMK A01 T02770127  RH  039%=      5-min Rain = 0
KPG1 201011Z 15005KT 28/13 A2994 RMK A01 T02770127  RH  039%=      5-min Rain = 0
KPG1 201012Z 15004KT 28/13 A2994 RMK A01 T02770127  RH  039%=      5-min Rain = 0
KPG1 201013Z 15004KT 28/13 A2994 RMK A01 T02770127  RH  039%=      5-min Rain = 0
KPG1 201014Z 14004KT 28/13 A2994 RMK A01 T02760127  RH  040%=      5-min Rain = 0
KPG1 201015Z 15005KT 28/13 A2994 RMK A01 T02760127  RH  040%=      5-min Rain = 0
KPG1 201016Z 15006KT 28/13 A2994 RMK A01 T02760127  RH  040%=      5-min Rain = 0
KPG1 201017Z 15006KT 28/13 A2994 RMK A01 T02750127  RH  040%=      5-min Rain = 0
KPG1 201018Z 15006KT 28/13 A2994 RMK A01 T02750127  RH  040%=      5-min Rain = 0
KPG1 201019Z 16007KT 28/13 A2994 RMK A01 T02750127  RH  040%=      5-min Rain = 0
KPG1 201020Z 16007KT 28/13 A2994 RMK A01 T02750126  RH  040%=      5-min Rain = 0
KPG1 201021Z 16006KT 28/13 A2994 RMK A01 T02750127  RH  040%=      5-min Rain = 0
KPG1 201022Z 15006KT 28/13 A2994 RMK A01 T02750127  RH  040%=      5-min Rain = 0
KPG1 201023Z 15006KT 28/13 A2994 RMK A01 T02750127  RH  040%=      5-min Rain = 0
KPG1 201024Z 15007KT 28/13 A2994 RMK A01 T02750127  RH  040%=      5-min Rain = 0
KPG1 201025Z 15005KT 28/13 A2994 RMK A01 T02760127  RH  040%=      5-min Rain = 0
KPG1 201026Z 14005G10KT 28/13 A2994 RMK A01 T02750127  RH  040%=      5-min Rain = 0
KPG1 201027Z 15009KT 28/13 A2994 RMK A01 T02750127  RH  040%=      5-min Rain = 0
KPG1 201028Z 15008KT 28/13 A2994 RMK A01 T02760127  RH  040%=      5-min Rain = 0
KPG1 201029Z 16006KT 28/13 A2994 RMK A01 T02770127  RH  040%=      5-min Rain = 0
KPG1 201030Z 17006KT 28/13 A2994 RMK A01 T02770128  RH  040%=      5-min Rain = 0
KPG1 201031Z 15006KT 28/13 A2994 RMK A01 T02760128  RH  040%=      5-min Rain = 0
KPG1 201032Z 16007KT 28/13 A2994 RMK A01 T02750128  RH  040%=      5-min Rain = 0
KPG1 201033Z 16006KT 28/13 A2994 RMK A01 T02750128  RH  040%=      5-min Rain = 0
KPG1 201034Z 15007KT 28/13 A2994 RMK A01 T02750128  RH  040%=      5-min Rain = 0
KPG1 201035Z 15008KT 28/13 A2994 RMK A01 T02750128  RH  040%=      5-min Rain = 0
KPG1 201036Z 16007KT 28/13 A2994 RMK A01 T02750128  RH  040%=      5-min Rain = 0
KPG1 201037Z 16006KT 28/13 A2994 RMK A01 T02750128  RH  040%=      5-min Rain = 0
KPG1 201038Z 16006KT 28/13 A2994 RMK A01 T02750128  RH  040%=      5-min Rain = 0
KPG1 201039Z 17005KT 27/13 A2994 RMK A01 T02740128  RH  041%=      5-min Rain = 0
KPG1 201040Z 18005KT 27/13 A2994 RMK A01 T02730128  RH  041%=      5-min Rain = 0
KPG1 201041Z 17006KT 27/13 A2994 RMK A01 T02730128  RH  041%=      5-min Rain = 0
KPG1 201042Z 18004KT 27/13 A2994 RMK A01 T02720129  RH  041%=      5-min Rain = 0
KPG1 201043Z 18004KT 27/13 A2994 RMK A01 T02710129  RH  041%=      5-min Rain = 0
KPG1 201044Z 18005KT 27/13 A2994 RMK A01 T02700129  RH  042%=      5-min Rain = 0
KPG1 201045Z 18005KT 27/13 A2994 RMK A01 T02690128  RH  042%=      5-min Rain = 0
KPG1 201046Z 17005KT 27/13 A2994 RMK A01 T02690128  RH  042%=      5-min Rain = 0
KPG1 201047Z 18005KT 27/13 A2994 RMK A01 T02690129  RH  042%=      5-min Rain = 0
KPG1 201048Z 18005KT 27/13 A2994 RMK A01 T02680129  RH  042%=      5-min Rain = 0
KPG1 201049Z 18005KT 27/13 A2994 RMK A01 T02670129  RH  042%=      5-min Rain = 0
KPG1 201050Z 17005KT 27/13 A2994 RMK A01 T02660129  RH  043%=      5-min Rain = 0
KPG1 201051Z 16007KT 27/13 A2994 RMK A01 T02660128  RH  042%=      5-min Rain = 0
KPG1 201052Z 17006KT 27/13 A2994 RMK A01 T02680128  RH  042%=      5-min Rain = 0
KPG1 201053Z 17006KT 27/13 A2994 RMK A01 T02680128  RH  042%=      5-min Rain = 0
KPG1 201054Z 17006KT 27/13 A2994 RMK A01 T02680129  RH  042%=      5-min Rain = 0
KPG1 201055Z 17005KT 27/13 A2994 RMK A01 T02680129  RH  042%=      5-min Rain = 0
KPG1 201056Z 17005KT 27/13 A2994 RMK A01 T02670129  RH  042%=      5-min Rain = 0
KPG1 201057Z 17005KT 27/13 A2994 RMK A01 T02670129  RH  042%=      5-min Rain = 0
KPG1 201058Z 17004KT 27/13 A2994 RMK A01 T02670129  RH  043%=      5-min Rain = 0
KPG1 201059Z 17005KT 27/13 A2994 RMK A01 T02660129  RH  043%=      5-min Rain = 0
KPG1 201100Z 17005KT 27/13 A2994 RMK A01 T02660129  RH  043%=      5-min Rain = 0
KPG1 201101Z 17005KT 27/13 A2994 RMK A01 T02650129  RH  043%=      5-min Rain = 0
KPG1 201102Z 18005KT 27/13 A2994 RMK A01 T02650129  RH  043%=      5-min Rain = 0
KPG1 201103Z 18005KT 27/13 A2994 RMK A01 T02650129  RH  043%=      5-min Rain = 0
KPG1 201104Z 17005KT 27/13 A2994 RMK A01 T02650130  RH  043%=      5-min Rain = 0
KPG1 201105Z 18005KT 26/13 A2994 RMK A01 T02640129  RH  043%=      5-min Rain = 0
KPG1 201106Z 18004KT 26/13 A2995 RMK A01 T02640130  RH  043%=      5-min Rain = 0
KPG1 201107Z 18004KT 26/13 A2995 RMK A01 T02640130  RH  043%=      5-min Rain = 0
KPG1 201108Z 17004KT 26/13 A2995 RMK A01 T02640130  RH  044%=      5-min Rain = 0
KPG1 201109Z 18004KT 26/13 A2995 RMK A01 T02630130  RH  044%=      5-min Rain = 0
KPG1 201110Z 19004KT 26/13 A2995 RMK A01 T02630130  RH  044%=      5-min Rain = 0
KPG1 201111Z 19004KT 26/13 A2995 RMK A01 T02630130  RH  044%=      5-min Rain = 0
KPG1 201112Z 19003KT 26/13 A2995 RMK A01 T02620131  RH  044%=      5-min Rain = 0
KPG1 201113Z 20003KT 26/13 A2995 RMK A01 T02610130  RH  044%=      5-min Rain = 0
KPG1 201114Z 20003KT 26/13 A2995 RMK A01 T02610131  RH  044%=      5-min Rain = 0
KPG1 201115Z 19004KT 26/13 A2995 RMK A01 T02600131  RH  045%=      5-min Rain = 0
KPG1 201116Z 18004KT 26/13 A2995 RMK A01 T02600131  RH  045%=      5-min Rain = 0
KPG1 201117Z 18003KT 26/13 A2995 RMK A01 T02590130  RH  045%=      5-min Rain = 0
KPG1 201118Z 17003KT 26/13 A2995 RMK A01 T02590130  RH  045%=      5-min Rain = 0
KPG1 201119Z 17003KT 26/13 A2995 RMK A01 T02600130  RH  045%=      5-min Rain = 0
KPG1 201120Z 16003KT 26/13 A2995 RMK A01 T02600130  RH  044%=      5-min Rain = 0
KPG1 201121Z 16002KT 26/13 A2995 RMK A01 T02600130  RH  045%=      5-min Rain = 0
KPG1 201122Z 16002KT 26/13 A2995 RMK A01 T02610131  RH  045%=      5-min Rain = 0
KPG1 201123Z 16001KT 26/13 A2995 RMK A01 T02600132  RH  045%=      5-min Rain = 0
KPG1 201124Z 16001KT 26/13 A2995 RMK A01 T02600131  RH  045%=      5-min Rain = 0
KPG1 201125Z 14000KT 26/13 A2995 RMK A01 T02590132  RH  045%=      5-min Rain = 0
KPG1 201126Z 11002KT 26/13 A2995 RMK A01 T02590131  RH  045%=      5-min Rain = 0
KPG1 201127Z 12001KT 26/13 A2995 RMK A01 T02590131  RH  045%=      5-min Rain = 0
KPG1 201128Z 09001KT 26/13 A2995 RMK A01 T02590130  RH  045%=      5-min Rain = 0
KPG1 201129Z 07001KT 26/13 A2996 RMK A01 T02590131  RH  045%=      5-min Rain = 0
KPG1 201130Z 08002KT 26/13 A2996 RMK A01 T02590131  RH  045%=      5-min Rain = 0
KPG1 201131Z 10002KT 26/13 A2996 RMK A01 T02590131  RH  045%=      5-min Rain = 0
KPG1 201132Z 09002KT 26/13 A2996 RMK A01 T02590130  RH  045%=      5-min Rain = 0
KPG1 201133Z 10003KT 26/13 A2996 RMK A01 T02590130  RH  045%=      5-min Rain = 0
KPG1 201134Z 11004KT 26/13 A2996 RMK A01 T02600131  RH  045%=      5-min Rain = 0
KPG1 201135Z 11003KT 26/13 A2996 RMK A01 T02600132  RH  045%=      5-min Rain = 0
KPG1 201136Z 11004KT 26/13 A2996 RMK A01 T02600132  RH  045%=      5-min Rain = 0
KPG1 201137Z 11004KT 26/13 A2996 RMK A01 T02600131  RH  045%=      5-min Rain = 0
KPG1 201138Z 10003KT 26/13 A2996 RMK A01 T02610131  RH  045%=      5-min Rain = 0
KPG1 201139Z 11003KT 26/13 A2996 RMK A01 T02610132  RH  045%=      5-min Rain = 0
KPG1 201140Z 10003KT 26/13 A2996 RMK A01 T02600132  RH  045%=      5-min Rain = 0
KPG1 201141Z 10003KT 26/13 A2996 RMK A01 T02600132  RH  045%=      5-min Rain = 0
KPG1 201142Z 10003KT 26/13 A2996 RMK A01 T02590132  RH  045%=      5-min Rain = 0
KPG1 201143Z 10003KT 26/13 A2996 RMK A01 T02590132  RH  045%=      5-min Rain = 0
KPG1 201144Z 11003KT 26/13 A2996 RMK A01 T02590132  RH  046%=      5-min Rain = 0
KPG1 201145Z 13003KT 26/13 A2996 RMK A01 T02580131  RH  045%=      5-min Rain = 0
KPG1 201146Z 11002KT 26/13 A2996 RMK A01 T02590131  RH  045%=      5-min Rain = 0
KPG1 201147Z 12001KT 26/13 A2996 RMK A01 T02600132  RH  045%=      5-min Rain = 0
KPG1 201148Z 10002KT 26/13 A2996 RMK A01 T02600131  RH  045%=      5-min Rain = 0
KPG1 201149Z 13003KT 26/13 A2996 RMK A01 T02610131  RH  045%=      5-min Rain = 0
KPG1 201150Z 13002KT 26/13 A2996 RMK A01 T02610133  RH  045%=      5-min Rain = 0
KPG1 201151Z 14002KT 26/13 A2996 RMK A01 T02610132  RH  045%=      5-min Rain = 0
KPG1 201152Z 14001KT 26/13 A2996 RMK A01 T02610132  RH  045%=      5-min Rain = 0
KPG1 201153Z 13001KT 26/13 A2996 RMK A01 T02600133  RH  045%=      5-min Rain = 0
KPG1 201154Z 11001KT 26/13 A2996 RMK A01 T02590134  RH  046%=      5-min Rain = 0
KPG1 201155Z 09001KT 26/13 A2996 RMK A01 T02580133  RH  046%=      5-min Rain = 0
KPG1 201156Z 07001KT 26/13 A2996 RMK A01 T02580133  RH  046%=      5-min Rain = 0
KPG1 201157Z 07002KT 26/14 A2996 RMK A01 T02570135  RH  047%=      5-min Rain = 0
KPG1 201158Z 07001KT 26/13 A2996 RMK A01 T02550134  RH  047%=      5-min Rain = 0
KPG1 201159Z 08001KT 25/14 A2996 RMK A01 T02530135  RH  048%=      5-min Rain = 0
KPG1 201200Z 09001KT 25/13 A2996 RMK A01 T02530132  RH  047%=      5-min Rain = 0
KPG1 201201Z 08001KT 25/13 A2996 RMK A01 T02530132  RH  047%=      5-min Rain = 0
KPG1 201202Z 08001KT 25/13 A2996 RMK A01 T02530132  RH  047%=      5-min Rain = 0
KPG1 201203Z 02000KT 25/14 A2996 RMK A01 T02540136  RH  048%=      5-min Rain = 0
KPG1 201204Z 04000KT 25/14 A2996 RMK A01 T02520137  RH  049%=      5-min Rain = 0
KPG1 201205Z 04001KT 25/14 A2996 RMK A01 T02510136  RH  049%=      5-min Rain = 0
KPG1 201206Z 04001KT 25/14 A2996 RMK A01 T02500135  RH  049%=      5-min Rain = 0
KPG1 201207Z 04001KT 25/14 A2996 RMK A01 T02490136  RH  049%=      5-min Rain = 0
KPG1 201208Z 06001KT 25/14 A2997 RMK A01 T02490135  RH  049%=      5-min Rain = 0
KPG1 201209Z 05001KT 25/14 A2997 RMK A01 T02480139  RH  051%=      5-min Rain = 0
KPG1 201210Z 04002KT 25/14 A2997 RMK A01 T02450138  RH  051%=      5-min Rain = 0
KPG1 201211Z 03002KT 24/14 A2997 RMK A01 T02440137  RH  051%=      5-min Rain = 0
KPG1 201212Z 03002KT 24/14 A2997 RMK A01 T02420139  RH  052%=      5-min Rain = 0
KPG1 201213Z 04003KT 24/14 A2997 RMK A01 T02410140  RH  053%=      5-min Rain = 0
KPG1 201214Z 03003KT 24/14 A2997 RMK A01 T02390140  RH  054%=      5-min Rain = 0
KPG1 201215Z 04002KT 24/14 A2997 RMK A01 T02380141  RH  054%=      5-min Rain = 0
KPG1 201216Z 03002KT 24/14 A2997 RMK A01 T02370140  RH  054%=      5-min Rain = 0
KPG1 201217Z 03002KT 24/14 A2997 RMK A01 T02370139  RH  054%=      5-min Rain = 0
KPG1 201218Z 02002KT 24/14 A2997 RMK A01 T02380139  RH  054%=      5-min Rain = 0
KPG1 201219Z 03002KT 24/14 A2997 RMK A01 T02390137  RH  053%=      5-min Rain = 0
KPG1 201220Z 03002KT 24/14 A2997 RMK A01 T02410138  RH  052%=      5-min Rain = 0
KPG1 201221Z 04002KT 24/14 A2997 RMK A01 T02420138  RH  052%=      5-min Rain = 0
KPG1 201222Z 03002KT 24/14 A2997 RMK A01 T02430137  RH  052%=      5-min Rain = 0
KPG1 201223Z 04002KT 24/14 A2997 RMK A01 T02440137  RH  051%=      5-min Rain = 0
KPG1 201224Z 03002KT 25/14 A2997 RMK A01 T02450136  RH  051%=      5-min Rain = 0
KPG1 201225Z 03002KT 25/14 A2997 RMK A01 T02460138  RH  051%=      5-min Rain = 0
KPG1 201226Z 03002KT 25/14 A2997 RMK A01 T02460137  RH  051%=      5-min Rain = 0
KPG1 201227Z 04002KT 25/14 A2997 RMK A01 T02470140  RH  051%=      5-min Rain = 0
KPG1 201228Z 05002KT 25/14 A2997 RMK A01 T02450140  RH  052%=      5-min Rain = 0
KPG1 201229Z 05003KT 24/14 A2997 RMK A01 T02440140  RH  052%=      5-min Rain = 0
KPG1 201230Z 05002KT 24/14 A2997 RMK A01 T02430137  RH  051%=      5-min Rain = 0
KPG1 201231Z 05002KT 24/14 A2997 RMK A01 T02430136  RH  051%=      5-min Rain = 0
KPG1 201232Z 05002KT 25/14 A2997 RMK A01 T02450137  RH  051%=      5-min Rain = 0
KPG1 201233Z 05002KT 25/14 A2997 RMK A01 T02450140  RH  052%=      5-min Rain = 0
KPG1 201234Z 05002KT 25/14 A2997 RMK A01 T02450141  RH  052%=      5-min Rain = 0
KPG1 201235Z 05002KT 24/14 A2997 RMK A01 T02440140  RH  052%=      5-min Rain = 0
KPG1 201236Z 06002KT 24/14 A2997 RMK A01 T02440139  RH  052%=      5-min Rain = 0
KPG1 201237Z 06002KT 25/14 A2997 RMK A01 T02450137  RH  051%=      5-min Rain = 0
KPG1 201238Z 06002KT 25/14 A2997 RMK A01 T02450137  RH  051%=      5-min Rain = 0
KPG1 201239Z 06002KT 25/14 A2997 RMK A01 T02450137  RH  051%=      5-min Rain = 0
KPG1 201240Z 06001KT 25/14 A2997 RMK A01 T02450138  RH  051%=      5-min Rain = 0
KPG1 201241Z 03001KT 25/14 A2997 RMK A01 T02450142  RH  053%=      5-min Rain = 0
KPG1 201242Z 04002KT 25/14 A2997 RMK A01 T02450142  RH  053%=      5-min Rain = 0
KPG1 201243Z 03001KT 25/14 A2997 RMK A01 T02450141  RH  052%=      5-min Rain = 0
KPG1 201244Z 05002KT 25/14 A2997 RMK A01 T02450139  RH  052%=      5-min Rain = 0
KPG1 201245Z 05002KT 25/14 A2997 RMK A01 T02460137  RH  051%=      5-min Rain = 0
KPG1 201246Z 06001KT 25/14 A2997 RMK A01 T02480137  RH  050%=      5-min Rain = 0
KPG1 201247Z 05002KT 25/14 A2997 RMK A01 T02500139  RH  050%=      5-min Rain = 0
KPG1 201248Z 08002KT 25/14 A2997 RMK A01 T02510139  RH  050%=      5-min Rain = 0
KPG1 201249Z 07002KT 25/14 A2997 RMK A01 T02530140  RH  050%=      5-min Rain = 0
KPG1 201250Z 09002KT 25/14 A2997 RMK A01 T02540141  RH  049%=      5-min Rain = 0
KPG1 201251Z 09003KT 26/14 A2997 RMK A01 T02550141  RH  049%=      5-min Rain = 0
KPG1 201252Z 10003KT 26/14 A2997 RMK A01 T02560140  RH  049%=      5-min Rain = 0
KPG1 201253Z 11003KT 26/14 A2997 RMK A01 T02570138  RH  048%=      5-min Rain = 0
KPG1 201254Z 12003KT 26/14 A2997 RMK A01 T02580138  RH  047%=      5-min Rain = 0
KPG1 201255Z 11003KT 26/14 A2998 RMK A01 T02600138  RH  047%=      5-min Rain = 0
KPG1 201256Z 11003KT 26/14 A2998 RMK A01 T02620138  RH  046%=      5-min Rain = 0
KPG1 201257Z 12003KT 26/14 A2998 RMK A01 T02640138  RH  046%=      5-min Rain = 0
KPG1 201258Z 11003KT 27/14 A2998 RMK A01 T02660138  RH  045%=      5-min Rain = 0
KPG1 201259Z 12002KT 27/14 A2998 RMK A01 T02670139  RH  045%=      5-min Rain = 0
KPG1 201300Z 11002KT 27/14 A2998 RMK A01 T02690138  RH  044%=      5-min Rain = 0
KPG1 201301Z 10002KT 27/14 A2998 RMK A01 T02700139  RH  044%=      5-min Rain = 0
KPG1 201302Z 10003KT 27/14 A2998 RMK A01 T02710139  RH  044%=      5-min Rain = 0
KPG1 201303Z 10003KT 27/14 A2998 RMK A01 T02720138  RH  044%=      5-min Rain = 0
KPG1 201304Z 10002KT 27/14 A2997 RMK A01 T02710139  RH  044%=      5-min Rain = 0
KPG1 201305Z 12002KT 27/14 A2997 RMK A01 T02720140  RH  044%=      5-min Rain = 0
KPG1 201306Z 12003KT 27/14 A2998 RMK A01 T02720141  RH  045%=      5-min Rain = 0
KPG1 201307Z 13004KT 27/14 A2998 RMK A01 T02730139  RH  044%=      5-min Rain = 0
KPG1 201308Z 13004KT 27/14 A2998 RMK A01 T02740138  RH  043%=      5-min Rain = 0
KPG1 201309Z 13003KT 27/14 A2998 RMK A01 T02740138  RH  043%=      5-min Rain = 0
KPG1 201310Z 12003KT 27/14 A2998 RMK A01 T02730138  RH  043%=      5-min Rain = 0
KPG1 201311Z 12003KT 27/14 A2998 RMK A01 T02740138  RH  043%=      5-min Rain = 0
KPG1 201312Z 11002KT 27/14 A2998 RMK A01 T02740138  RH  043%=      5-min Rain = 0
KPG1 201313Z 11003KT 27/14 A2998 RMK A01 T02740139  RH  043%=      5-min Rain = 0
KPG1 201314Z 12004KT 27/14 A2998 RMK A01 T02740138  RH  043%=      5-min Rain = 0
KPG1 201315Z 11004KT 27/14 A2998 RMK A01 T02740137  RH  043%=      5-min Rain = 0
KPG1 201316Z 12002KT 27/14 A2998 RMK A01 T02740139  RH  043%=      5-min Rain = 0
KPG1 201317Z 13003KT 27/14 A2998 RMK A01 T02740138  RH  043%=      5-min Rain = 0
KPG1 201318Z 12003KT 28/14 A2998 RMK A01 T02750139  RH  043%=      5-min Rain = 0
KPG1 201319Z 11004KT 28/14 A2998 RMK A01 T02760139  RH  043%=      5-min Rain = 0
KPG1 201320Z 11003KT 28/14 A2998 RMK A01 T02760139  RH  043%=      5-min Rain = 0
KPG1 201321Z 12004KT 28/14 A2998 RMK A01 T02770138  RH  043%=      5-min Rain = 0
KPG1 201322Z 12004KT 28/14 A2998 RMK A01 T02770138  RH  042%=      5-min Rain = 0
KPG1 201323Z 10004KT 28/14 A2998 RMK A01 T02770138  RH  042%=      5-min Rain = 0
KPG1 201324Z 10003KT 28/14 A2998 RMK A01 T02780137  RH  042%=      5-min Rain = 0
KPG1 201325Z 10003KT 28/14 A2998 RMK A01 T02770137  RH  042%=      5-min Rain = 0
KPG1 201326Z 07002KT 28/14 A2998 RMK A01 T02770138  RH  042%=      5-min Rain = 0
KPG1 201327Z 07002KT 28/14 A2998 RMK A01 T02780138  RH  042%=      5-min Rain = 0
KPG1 201328Z 08003KT 28/14 A2998 RMK A01 T02800138  RH  042%=      5-min Rain = 0
KPG1 201329Z 10002KT 28/14 A2998 RMK A01 T02800137  RH  042%=      5-min Rain = 0
KPG1 201330Z 10003KT 28/14 A2998 RMK A01 T02800138  RH  042%=      5-min Rain = 0
KPG1 201331Z 08004KT 28/14 A2998 RMK A01 T02810137  RH  041%=      5-min Rain = 0
KPG1 201332Z 09003KT 28/14 A2998 RMK A01 T02810139  RH  042%=      5-min Rain = 0
KPG1 201333Z 08003KT 28/14 A2998 RMK A01 T02820139  RH  041%=      5-min Rain = 0
KPG1 201334Z 07004KT 28/14 A2998 RMK A01 T02830137  RH  041%=      5-min Rain = 0
KPG1 201335Z 07004KT 28/14 A2998 RMK A01 T02830138  RH  041%=      5-min Rain = 0
KPG1 201336Z 06005KT 28/14 A2998 RMK A01 T02830138  RH  041%=      5-min Rain = 0
KPG1 201337Z 07005KT 28/14 A2998 RMK A01 T02820137  RH  041%=      5-min Rain = 0
KPG1 201338Z 06004KT 28/14 A2998 RMK A01 T02810137  RH  041%=      5-min Rain = 0
KPG1 201339Z 06004KT 28/14 A2998 RMK A01 T02810137  RH  041%=      5-min Rain = 0
KPG1 201340Z 07004KT 28/14 A2998 RMK A01 T02810138  RH  041%=      5-min Rain = 0
KPG1 201341Z 06005KT 28/14 A2998 RMK A01 T02820137  RH  041%=      5-min Rain = 0
KPG1 201342Z 06004KT 28/14 A2998 RMK A01 T02810137  RH  041%=      5-min Rain = 0
KPG1 201343Z 07004KT 28/14 A2998 RMK A01 T02800137  RH  041%=      5-min Rain = 0
KPG1 201344Z 08005KT 28/14 A2998 RMK A01 T02810138  RH  041%=      5-min Rain = 0
KPG1 201345Z 06003KT 28/14 A2998 RMK A01 T02810137  RH  041%=      5-min Rain = 0
KPG1 201346Z 06003KT 28/14 A2998 RMK A01 T02820139  RH  041%=      5-min Rain = 0
KPG1 201347Z 07004KT 28/14 A2998 RMK A01 T02840140  RH  041%=      5-min Rain = 0
KPG1 201348Z 06005KT 29/14 A2998 RMK A01 T02850139  RH  041%=      5-min Rain = 0
KPG1 201349Z 05004KT 29/14 A2998 RMK A01 T02860139  RH  041%=      5-min Rain = 0
KPG1 201350Z 05004KT 29/14 A2998 RMK A01 T02860139  RH  040%=      5-min Rain = 0
KPG1 201351Z 06005KT 29/14 A2999 RMK A01 T02850138  RH  041%=      5-min Rain = 0
KPG1 201352Z 06007KT 28/14 A2999 RMK A01 T02840137  RH  041%=      5-min Rain = 0
KPG1 201353Z 06006KT 28/14 A2999 RMK A01 T02830137  RH  041%=      5-min Rain = 0
KPG1 201354Z 06005KT 28/14 A2999 RMK A01 T02830137  RH  041%=      5-min Rain = 0
KPG1 201355Z 06007KT 28/14 A2999 RMK A01 T02820137  RH  041%=      5-min Rain = 0
KPG1 201356Z 07007KT 28/14 A2999 RMK A01 T02830137  RH  041%=      5-min Rain = 0
KPG1 201357Z 06005KT 28/14 A2999 RMK A01 T02830138  RH  041%=      5-min Rain = 0
KPG1 201358Z 07006KT 28/14 A2999 RMK A01 T02840139  RH  041%=      5-min Rain = 0
KPG1 201359Z 07007KT 29/14 A2999 RMK A01 T02850137  RH  040%=      5-min Rain = 0
KPG1 201400Z 07006KT 28/14 A2999 RMK A01 T02840138  RH  041%=      5-min Rain = 0
KPG1 201401Z 07006KT 28/14 A2999 RMK A01 T02840137  RH  041%=      5-min Rain = 0
KPG1 201402Z 07006KT 29/14 A2999 RMK A01 T02850138  RH  041%=      5-min Rain = 0
KPG1 201403Z 07005KT 29/14 A2999 RMK A01 T02850140  RH  041%=      5-min Rain = 0
KPG1 201404Z 06007KT 29/14 A2999 RMK A01 T02860140  RH  041%=      5-min Rain = 0
KPG1 201405Z 06006KT 29/14 A2999 RMK A01 T02860140  RH  041%=      5-min Rain = 0
KPG1 201406Z 07006KT 29/14 A2999 RMK A01 T02860140  RH  041%=      5-min Rain = 0
KPG1 201407Z 07006KT 29/14 A2999 RMK A01 T02850139  RH  041%=      5-min Rain = 0
KPG1 201408Z 07006KT 29/14 A2999 RMK A01 T02850139  RH  041%=      5-min Rain = 0
KPG1 201409Z 07006KT 29/14 A2999 RMK A01 T02850139  RH  041%=      5-min Rain = 0
KPG1 201410Z 07005KT 28/14 A2999 RMK A01 T02840140  RH  041%=      5-min Rain = 0
KPG1 201411Z 07006KT 29/14 A2999 RMK A01 T02850140  RH  041%=      5-min Rain = 0
KPG1 201412Z 07006KT 29/14 A2999 RMK A01 T02860140  RH  041%=      5-min Rain = 0
KPG1 201413Z 07006KT 29/14 A2999 RMK A01 T02860139  RH  041%=      5-min Rain = 0
KPG1 201414Z 06006KT 29/14 A2999 RMK A01 T02860140  RH  041%=      5-min Rain = 0
KPG1 201415Z 06006KT 29/14 A2999 RMK A01 T02870139  RH  040%=      5-min Rain = 0
KPG1 201416Z 07006KT 29/14 A2999 RMK A01 T02870140  RH  041%=      5-min Rain = 0
KPG1 201417Z 07007KT 29/14 A2999 RMK A01 T02870140  RH  041%=      5-min Rain = 0
KPG1 201418Z 07008KT 29/14 A2999 RMK A01 T02890141  RH  040%=      5-min Rain = 0
KPG1 201419Z 07007KT 29/14 A2999 RMK A01 T02880140  RH  040%=      5-min Rain = 0
KPG1 201420Z 07008KT 29/14 A2999 RMK A01 T02860140  RH  041%=      5-min Rain = 0
KPG1 201421Z 06007KT 29/14 A2999 RMK A01 T02860141  RH  041%=      5-min Rain = 0
KPG1 201422Z 06006KT 29/14 A2999 RMK A01 T02850141  RH  041%=      5-min Rain = 0
KPG1 201423Z 07007KT 29/14 A2999 RMK A01 T02860142  RH  041%=      5-min Rain = 0
KPG1 201424Z 06006KT 29/14 A2999 RMK A01 T02860141  RH  041%=      5-min Rain = 0
KPG1 201425Z 06006KT 29/14 A2999 RMK A01 T02850141  RH  041%=      5-min Rain = 0
KPG1 201426Z 07006KT 29/14 A2999 RMK A01 T02860142  RH  041%=      5-min Rain = 0
KPG1 201427Z 06006KT 29/14 A2999 RMK A01 T02880143  RH  041%=      5-min Rain = 0
KPG1 201428Z 07007KT 29/14 A2999 RMK A01 T02900143  RH  041%=      5-min Rain = 0
KPG1 201429Z 06007KT 29/14 A2999 RMK A01 T02900142  RH  041%=      5-min Rain = 0
KPG1 201430Z 07006KT 29/14 A2999 RMK A01 T02890140  RH  040%=      5-min Rain = 0
KPG1 201431Z 07008KT 29/14 A2999 RMK A01 T02910143  RH  041%=      5-min Rain = 0
KPG1 201432Z 07007KT 29/14 A2999 RMK A01 T02910143  RH  040%=      5-min Rain = 0
KPG1 201433Z 06006KT 29/14 A2999 RMK A01 T02900143  RH  041%=      5-min Rain = 0
KPG1 201434Z 06007KT 29/14 A2999 RMK A01 T02910143  RH  041%=      5-min Rain = 0
KPG1 201435Z 06004KT 29/14 A2999 RMK A01 T02910140  RH  040%=      5-min Rain = 0
KPG1 201436Z 06005KT 29/14 A2999 RMK A01 T02900143  RH  041%=      5-min Rain = 0
KPG1 201437Z 06006KT 29/14 A2999 RMK A01 T02910143  RH  040%=      5-min Rain = 0
KPG1 201438Z 06006KT 29/14 A2999 RMK A01 T02920142  RH  040%=      5-min Rain = 0
KPG1 201439Z 06006KT 29/14 A2999 RMK A01 T02900143  RH  041%=      5-min Rain = 0
KPG1 201440Z 07008KT 29/14 A2999 RMK A01 T02920144  RH  040%=      5-min Rain = 0
KPG1 201441Z 06007KT 29/14 A2999 RMK A01 T02920142  RH  040%=      5-min Rain = 0
KPG1 201442Z 07005KT 29/14 A2999 RMK A01 T02900144  RH  041%=      5-min Rain = 0
KPG1 201443Z 06006KT 29/14 A2999 RMK A01 T02920144  RH  040%=      5-min Rain = 0
KPG1 201444Z 05006KT 29/14 A2999 RMK A01 T02940143  RH  040%=      5-min Rain = 0
KPG1 201445Z 05004KT 29/14 A2999 RMK A01 T02920143  RH  040%=      5-min Rain = 0
KPG1 201446Z 03004KT 29/15 A2999 RMK A01 T02930145  RH  040%=      5-min Rain = 0
KPG1 201447Z 05005KT 30/15 A2999 RMK A01 T02970146  RH  040%=      5-min Rain = 0
KPG1 201448Z 06005KT 30/14 A2999 RMK A01 T02980144  RH  039%=      5-min Rain = 0
KPG1 201449Z 05006KT 30/15 A2999 RMK A01 T02970145  RH  039%=      5-min Rain = 0
KPG1 201450Z 05006KT 30/14 A2999 RMK A01 T02980143  RH  039%=      5-min Rain = 0
KPG1 201451Z 08006KT 30/14 A2999 RMK A01 T02970143  RH  039%=      5-min Rain = 0
KPG1 201452Z 07006KT 30/14 A2998 RMK A01 T02970144  RH  039%=      5-min Rain = 0
KPG1 201453Z 06006KT 30/14 A2999 RMK A01 T02980143  RH  039%=      5-min Rain = 0
KPG1 201454Z 06004KT 30/14 A2999 RMK A01 T02980140  RH  038%=      5-min Rain = 0
KPG1 201455Z 06006KT 30/14 A2998 RMK A01 T02960142  RH  039%=      5-min Rain = 0
KPG1 201456Z 05007KT 30/14 A2999 RMK A01 T02970144  RH  039%=      5-min Rain = 0
KPG1 201457Z 05006KT 30/14 A2999 RMK A01 T02980142  RH  039%=      5-min Rain = 0
KPG1 201458Z 04004KT 30/14 A2999 RMK A01 T02990139  RH  038%=      5-min Rain = 0
KPG1 201459Z 05005KT 30/14 A2999 RMK A01 T02990139  RH  038%=      5-min Rain = 0
KPG1 201500Z 05005KT 30/14 A2999 RMK A01 T02990142  RH  038%=      5-min Rain = 0
KPG1 201501Z 07004KT 30/14 A2999 RMK A01 T02990143  RH  039%=      5-min Rain = 0
KPG1 201502Z 06004KT 30/14 A2999 RMK A01 T03000144  RH  039%=      5-min Rain = 0
KPG1 201503Z 06006KT 30/14 A2999 RMK A01 T03010144  RH  038%=      5-min Rain = 0
KPG1 201504Z 07006KT 30/15 A2998 RMK A01 T03010145  RH  039%=      5-min Rain = 0
KPG1 201505Z 06005KT 30/15 A2999 RMK A01 T03010146  RH  039%=      5-min Rain = 0
KPG1 201506Z 06006KT 30/15 A2998 RMK A01 T03020146  RH  039%=      5-min Rain = 0
KPG1 201507Z 04006KT 30/15 A2998 RMK A01 T03020146  RH  039%=      5-min Rain = 0
KPG1 201508Z 06005KT 30/15 A2998 RMK A01 T03000145  RH  039%=      5-min Rain = 0
KPG1 201509Z 05005KT 30/15 A2998 RMK A01 T02990146  RH  039%=      5-min Rain = 0
KPG1 201510Z 04006KT 30/15 A2999 RMK A01 T03000145  RH  039%=      5-min Rain = 0
KPG1 201511Z 05007KT 30/15 A2999 RMK A01 T02990145  RH  039%=      5-min Rain = 0
KPG1 201512Z 07008KT 30/14 A2998 RMK A01 T02980144  RH  039%=      5-min Rain = 0
KPG1 201513Z 06005KT 30/14 A2998 RMK A01 T02980143  RH  039%=      5-min Rain = 0
KPG1 201514Z 05006KT 30/15 A2998 RMK A01 T03000145  RH  039%=      5-min Rain = 0
KPG1 201515Z 05005KT 30/15 A2998 RMK A01 T03000145  RH  039%=      5-min Rain = 0
KPG1 201516Z 05005KT 30/15 A2998 RMK A01 T03000146  RH  039%=      5-min Rain = 0
KPG1 201517Z 04004KT 30/15 A2998 RMK A01 T03030147  RH  039%=      5-min Rain = 0
KPG1 201518Z 04005KT 31/15 A2998 RMK A01 T03070148  RH  038%=      5-min Rain = 0
KPG1 201519Z 03006KT 31/15 A2998 RMK A01 T03090148  RH  038%=      5-min Rain = 0
KPG1 201520Z 04005KT 31/15 A2998 RMK A01 T03090147  RH  037%=      5-min Rain = 0
KPG1 201521Z 07004KT 31/15 A2998 RMK A01 T03070145  RH  037%=      5-min Rain = 0
KPG1 201522Z 06005KT 31/14 A2998 RMK A01 T03070142  RH  037%=      5-min Rain = 0
KPG1 201523Z 11006KT 31/14 A2998 RMK A01 T03090143  RH  036%=      5-min Rain = 0
KPG1 201524Z 14003KT 31/14 A2998 RMK A01 T03110140  RH  035%=      5-min Rain = 0
KPG1 201525Z 14002KT 31/14 A2998 RMK A01 T03110140  RH  035%=      5-min Rain = 0
KPG1 201526Z 07005KT 31/14 A2998 RMK A01 T03130144  RH  036%=      5-min Rain = 0
KPG1 201527Z 09006KT 32/14 A2998 RMK A01 T03150143  RH  035%=      5-min Rain = 0
KPG1 201528Z 11004KT 32/14 A2998 RMK A01 T03160141  RH  035%=      5-min Rain = 0
KPG1 201529Z 15004KT 32/14 A2998 RMK A01 T03160141  RH  034%=      5-min Rain = 0
KPG1 201530Z 11003KT 32/14 A2998 RMK A01 T03180142  RH  035%=      5-min Rain = 0
KPG1 201531Z 08002KT 32/15 A2998 RMK A01 T03200148  RH  035%=      5-min Rain = 0
KPG1 201532Z 09003KT 32/15 A2998 RMK A01 T03210148  RH  035%=      5-min Rain = 0
KPG1 201533Z 12003KT 32/14 A2998 RMK A01 T03210143  RH  034%=      5-min Rain = 0
KPG1 201534Z 11003KT 32/14 A2998 RMK A01 T03200141  RH  034%=      5-min Rain = 0
KPG1 201535Z 07003KT 32/14 A2998 RMK A01 T03190144  RH  035%=      5-min Rain = 0
KPG1 201536Z 08003KT 32/15 A2998 RMK A01 T03200145  RH  035%=      5-min Rain = 0
KPG1 201537Z 17004KT 32/14 A2998 RMK A01 T03210142  RH  034%=      5-min Rain = 0
KPG1 201538Z 22002KT 32/14 A2998 RMK A01 T03210142  RH  034%=      5-min Rain = 0
KPG1 201539Z 21002KT 32/14 A2998 RMK A01 T03190141  RH  034%=      5-min Rain = 0
KPG1 201540Z 19002KT 32/14 A2998 RMK A01 T03170141  RH  034%=      5-min Rain = 0
KPG1 201541Z 17004KT 32/14 A2998 RMK A01 T03170142  RH  035%=      5-min Rain = 0
KPG1 201542Z 16003KT 32/14 A2998 RMK A01 T03200141  RH  034%=      5-min Rain = 0
KPG1 201543Z 15002KT 32/14 A2998 RMK A01 T03200139  RH  033%=      5-min Rain = 0
KPG1 201544Z 18002KT 32/14 A2998 RMK A01 T03190139  RH  034%=      5-min Rain = 0
KPG1 201545Z 17003KT 32/14 A2998 RMK A01 T03190140  RH  034%=      5-min Rain = 0
KPG1 201546Z 15003KT 32/14 A2998 RMK A01 T03200141  RH  034%=      5-min Rain = 0
KPG1 201547Z 14003KT 32/14 A2998 RMK A01 T03210141  RH  034%=      5-min Rain = 0
KPG1 201548Z 13005KT 32/14 A2998 RMK A01 T03230142  RH  033%=      5-min Rain = 0
KPG1 201549Z 12006KT 33/14 A2998 RMK A01 T03250141  RH  033%=      5-min Rain = 0
KPG1 201550Z 12006KT 33/14 A2998 RMK A01 T03250140  RH  033%=      5-min Rain = 0
KPG1 201551Z 12007KT 33/14 A2998 RMK A01 T03250139  RH  033%=      5-min Rain = 0
KPG1 201552Z 12006KT 32/14 A2998 RMK A01 T03240137  RH  032%=      5-min Rain = 0
KPG1 201553Z 13003KT 32/14 A2998 RMK A01 T03230136  RH  032%=      5-min Rain = 0
KPG1 201554Z 14005KT 32/14 A2998 RMK A01 T03230137  RH  032%=      5-min Rain = 0
KPG1 201555Z 16003KT 32/14 A2998 RMK A01 T03230136  RH  032%=      5-min Rain = 0
KPG1 201556Z 16005KT 32/14 A2998 RMK A01 T03210137  RH  033%=      5-min Rain = 0
KPG1 201557Z 16004KT 32/14 A2998 RMK A01 T03210139  RH  033%=      5-min Rain = 0
KPG1 201558Z 17004KT 32/14 A2998 RMK A01 T03220139  RH  033%=      5-min Rain = 0
KPG1 201559Z 17005KT 32/14 A2998 RMK A01 T03240138  RH  032%=      5-min Rain = 0
KPG1 201600Z 17003KT 32/14 A2998 RMK A01 T03240137  RH  032%=      5-min Rain = 0
KPG1 201601Z 17003KT 32/14 A2998 RMK A01 T03240138  RH  032%=      5-min Rain = 0
KPG1 201602Z 16005KT 33/14 A2998 RMK A01 T03250138  RH  032%=      5-min Rain = 0
KPG1 201603Z 15007KT 33/14 A2998 RMK A01 T03280137  RH  031%=      5-min Rain = 0
KPG1 201604Z 16009KT 33/13 A2998 RMK A01 T03280134  RH  031%=      5-min Rain = 0
KPG1 201605Z 18006KT 33/14 A2998 RMK A01 T03270135  RH  031%=      5-min Rain = 0
KPG1 201606Z 18005KT 33/13 A2998 RMK A01 T03260134  RH  031%=      5-min Rain = 0
KPG1 201607Z 19004KT 33/14 A2998 RMK A01 T03260136  RH  032%=      5-min Rain = 0
KPG1 201608Z 15002KT 33/14 A2998 RMK A01 T03280138  RH  032%=      5-min Rain = 0
KPG1 201609Z 14003KT 33/14 A2998 RMK A01 T03320138  RH  031%=      5-min Rain = 0
KPG1 201610Z 16005KT 33/14 A2998 RMK A01 T03340138  RH  031%=      5-min Rain = 0
KPG1 201611Z 17007KT 34/14 A2998 RMK A01 T03360136  RH  030%=      5-min Rain = 0
KPG1 201612Z 17006KT 34/14 A2997 RMK A01 T03350136  RH  030%=      5-min Rain = 0
KPG1 201613Z 14004KT 34/14 A2997 RMK A01 T03350137  RH  030%=      5-min Rain = 0
KPG1 201614Z 13005KT 34/14 A2997 RMK A01 T03360136  RH  030%=      5-min Rain = 0
KPG1 201615Z 16005KT 34/14 A2997 RMK A01 T03350136  RH  030%=      5-min Rain = 0
KPG1 201616Z 16005KT 33/14 A2997 RMK A01 T03340135  RH  030%=      5-min Rain = 0
KPG1 201617Z 16006KT 33/14 A2997 RMK A01 T03330136  RH  030%=      5-min Rain = 0
KPG1 201618Z 15007KT 34/13 A2997 RMK A01 T03350134  RH  030%=      5-min Rain = 0
KPG1 201619Z 17006KT 34/13 A2997 RMK A01 T03360134  RH  029%=      5-min Rain = 0
KPG1 201620Z 15005KT 34/13 A2997 RMK A01 T03360133  RH  029%=      5-min Rain = 0
KPG1 201621Z 19004KT 33/13 A2997 RMK A01 T03330133  RH  030%=      5-min Rain = 0
KPG1 201622Z 15007KT 33/13 A2997 RMK A01 T03320134  RH  030%=      5-min Rain = 0
KPG1 201623Z 11003KT 33/14 A2997 RMK A01 T03320135  RH  030%=      5-min Rain = 0
KPG1 201624Z 14003KT 33/14 A2997 RMK A01 T03330137  RH  031%=      5-min Rain = 0
KPG1 201625Z 13004KT 34/14 A2997 RMK A01 T03370136  RH  030%=      5-min Rain = 0
KPG1 201626Z 13004KT 34/14 A2997 RMK A01 T03380137  RH  030%=      5-min Rain = 0
KPG1 201627Z 11008KT 34/14 A2997 RMK A01 T03360137  RH  030%=      5-min Rain = 0
KPG1 201628Z 11006KT 33/14 A2997 RMK A01 T03340135  RH  030%=      5-min Rain = 0
KPG1 201629Z 10006KT 33/14 A2997 RMK A01 T03320135  RH  030%=      5-min Rain = 0
KPG1 201630Z 10004KT 33/14 A2997 RMK A01 T03310136  RH  031%=      5-min Rain = 0
KPG1 201631Z 13003KT 33/14 A2998 RMK A01 T03330135  RH  030%=      5-min Rain = 0
KPG1 201632Z 15004KT 33/14 A2998 RMK A01 T03330135  RH  030%=      5-min Rain = 0
KPG1 201633Z 14009KT 33/13 A2997 RMK A01 T03330133  RH  030%=      5-min Rain = 0
KPG1 201634Z 15008KT 34/13 A2997 RMK A01 T03350133  RH  029%=      5-min Rain = 0
KPG1 201635Z 13008KT 34/13 A2997 RMK A01 T03370132  RH  029%=      5-min Rain = 0
KPG1 201636Z 14008KT 34/13 A2997 RMK A01 T03370133  RH  029%=      5-min Rain = 0
KPG1 201637Z 14005KT 34/13 A2997 RMK A01 T03370133  RH  029%=      5-min Rain = 0
KPG1 201638Z 14005KT 34/14 A2997 RMK A01 T03390135  RH  029%=      5-min Rain = 0
KPG1 201639Z 17007KT 34/13 A2997 RMK A01 T03420134  RH  029%=      5-min Rain = 0
KPG1 201640Z 14011KT 34/13 A2997 RMK A01 T03440133  RH  028%=      5-min Rain = 0
KPG1 201641Z 14008KT 34/13 A2997 RMK A01 T03400132  RH  028%=      5-min Rain = 0
KPG1 201642Z 14008KT 34/13 A2997 RMK A01 T03390133  RH  029%=      5-min Rain = 0
KPG1 201643Z 13009KT 34/13 A2997 RMK A01 T03390133  RH  029%=      5-min Rain = 0
KPG1 201644Z 12005KT 34/13 A2997 RMK A01 T03400132  RH  029%=      5-min Rain = 0
KPG1 201645Z 14009KT 34/13 A2997 RMK A01 T03400133  RH  029%=      5-min Rain = 0
KPG1 201646Z 15009KT 34/13 A2997 RMK A01 T03420132  RH  028%=      5-min Rain = 0
KPG1 201647Z 13007KT 34/13 A2997 RMK A01 T03400132  RH  028%=      5-min Rain = 0
KPG1 201648Z 15012KT 34/13 A2997 RMK A01 T03400133  RH  029%=      5-min Rain = 0
KPG1 201649Z 13010KT 34/13 A2997 RMK A01 T03430133  RH  028%=      5-min Rain = 0
KPG1 201650Z 13006G11KT 34/13 A2997 RMK A01 T03430132  RH  028%=      5-min Rain = 0
KPG1 201651Z 15009KT 34/13 A2998 RMK A01 T03430133  RH  028%=      5-min Rain = 0
KPG1 201652Z 15009KT 34/13 A2998 RMK A01 T03440133  RH  028%=      5-min Rain = 0
KPG1 201653Z 16008KT 34/13 A2998 RMK A01 T03440133  RH  028%=      5-min Rain = 0
KPG1 201654Z 16006KT 34/13 A2998 RMK A01 T03440132  RH  028%=      5-min Rain = 0
KPG1 201655Z 13008KT 34/13 A2998 RMK A01 T03440133  RH  028%=      5-min Rain = 0
KPG1 201656Z 13009KT 35/13 A2997 RMK A01 T03460132  RH  028%=      5-min Rain = 0
KPG1 201657Z 13007KT 35/13 A2998 RMK A01 T03450132  RH  028%=      5-min Rain = 0
KPG1 201658Z 14009KT 34/13 A2998 RMK A01 T03430132  RH  028%=      5-min Rain = 0
KPG1 201659Z 16010KT 35/13 A2998 RMK A01 T03450133  RH  028%=      5-min Rain = 0
KPG1 201700Z 15009KT 35/13 A2998 RMK A01 T03460132  RH  028%=      5-min Rain = 0
KPG1 201701Z 16004KT 34/13 A2998 RMK A01 T03440130  RH  028%=      5-min Rain = 0
KPG1 201702Z 14009KT 34/13 A2998 RMK A01 T03410132  RH  028%=      5-min Rain = 0
KPG1 201703Z 15006KT 34/13 A2998 RMK A01 T03440133  RH  028%=      5-min Rain = 0
KPG1 201704Z 17005KT 35/13 A2998 RMK A01 T03470133  RH  028%=      5-min Rain = 0
KPG1 201705Z 15008KT 35/14 A2998 RMK A01 T03490135  RH  028%=      5-min Rain = 0
KPG1 201706Z 16008KT 35/13 A2998 RMK A01 T03510134  RH  027%=      5-min Rain = 0
KPG1 201707Z 17004G10KT 35/13 A2998 RMK A01 T03480132  RH  027%=      5-min Rain = 0
KPG1 201708Z 15008KT 35/13 A2998 RMK A01 T03460134  RH  028%=      5-min Rain = 0
KPG1 201709Z 17008KT 35/13 A2998 RMK A01 T03490134  RH  028%=      5-min Rain = 0
KPG1 201710Z 19007KT 35/13 A2998 RMK A01 T03500134  RH  027%=      5-min Rain = 0
KPG1 201711Z 19005KT 35/13 A2998 RMK A01 T03490134  RH  028%=      5-min Rain = 0
KPG1 201712Z 20005KT 35/13 A2998 RMK A01 T03480134  RH  028%=      5-min Rain = 0
KPG1 201713Z 23004KT 35/13 A2998 RMK A01 T03480133  RH  027%=      5-min Rain = 0
KPG1 201714Z 19005G10KT 35/13 A2998 RMK A01 T03470134  RH  028%=      5-min Rain = 0
KPG1 201715Z 17008KT 35/13 A2998 RMK A01 T03470134  RH  028%=      5-min Rain = 0
KPG1 201716Z 15006KT 35/13 A2998 RMK A01 T03480134  RH  028%=      5-min Rain = 0
KPG1 201717Z 13004KT 35/13 A2998 RMK A01 T03470133  RH  027%=      5-min Rain = 0
KPG1 201718Z 14007KT 35/13 A2998 RMK A01 T03470133  RH  028%=      5-min Rain = 0
KPG1 201719Z 14007KT 35/13 A2998 RMK A01 T03470133  RH  027%=      5-min Rain = 0
KPG1 201720Z 13005KT 35/13 A2998 RMK A01 T03460132  RH  028%=      5-min Rain = 0
KPG1 201721Z 14006KT 35/13 A2998 RMK A01 T03460134  RH  028%=      5-min Rain = 0
KPG1 201722Z 13004KT 35/13 A2998 RMK A01 T03510134  RH  027%=      5-min Rain = 0
KPG1 201723Z 11001KT 35/13 A2998 RMK A01 T03520133  RH  027%=      5-min Rain = 0
KPG1 201724Z 09000KT 35/13 A2997 RMK A01 T03500132  RH  027%=      5-min Rain = 0
KPG1 201725Z 11003KT 35/14 A2997 RMK A01 T03510135  RH  027%=      5-min Rain = 0
KPG1 201726Z 15007KT 35/13 A2997 RMK A01 T03540134  RH  027%=      5-min Rain = 0
KPG1 201727Z 16007KT 36/14 A2997 RMK A01 T03550135  RH  027%=      5-min Rain = 0
KPG1 201728Z 18004KT 36/14 A2997 RMK A01 T03560135  RH  027%=      5-min Rain = 0
KPG1 201729Z 13005KT 36/14 A2997 RMK A01 T03580135  RH  026%=      5-min Rain = 0
KPG1 201730Z 13008KT 36/13 A2997 RMK A01 T03570134  RH  026%=      5-min Rain = 0
KPG1 201731Z 13006KT 36/13 A2997 RMK A01 T03550134  RH  027%=      5-min Rain = 0
KPG1 201732Z 12002KT 35/14 A2997 RMK A01 T03540135  RH  027%=      5-min Rain = 0
KPG1 201733Z 17002KT 36/14 A2997 RMK A01 T03560135  RH  027%=      5-min Rain = 0
KPG1 201734Z 19003KT 36/14 A2997 RMK A01 T03580135  RH  026%=      5-min Rain = 0
KPG1 201735Z 22002KT 36/13 A2997 RMK A01 T03580134  RH  026%=      5-min Rain = 0
KPG1 201736Z 15002KT 35/13 A2997 RMK A01 T03540134  RH  027%=      5-min Rain = 0
KPG1 201737Z 12005KT 36/14 A2997 RMK A01 T03550136  RH  027%=      5-min Rain = 0
KPG1 201738Z 11007KT 36/14 A2997 RMK A01 T03580136  RH  026%=      5-min Rain = 0
KPG1 201739Z 11004KT 36/14 A2997 RMK A01 T03590135  RH  026%=      5-min Rain = 0
KPG1 201740Z 10004KT 36/14 A2997 RMK A01 T03580136  RH  026%=      5-min Rain = 0
KPG1 201741Z 13005KT 36/13 A2997 RMK A01 T03590134  RH  026%=      5-min Rain = 0
KPG1 201742Z 16006KT 36/14 A2997 RMK A01 T03580135  RH  026%=      5-min Rain = 0
KPG1 201743Z 13005KT 36/13 A2997 RMK A01 T03590134  RH  026%=      5-min Rain = 0
KPG1 201744Z 17005G10KT 36/13 A2997 RMK A01 T03570134  RH  026%=      5-min Rain = 0
KPG1 201745Z 20010G15KT 36/14 A2997 RMK A01 T03580135  RH  026%=      5-min Rain = 0
KPG1 201746Z 19011G16KT 36/14 A2997 RMK A01 T03600135  RH  026%=      5-min Rain = 0
KPG1 201747Z 18008KT 36/13 A2997 RMK A01 T03590134  RH  026%=      5-min Rain = 0
KPG1 201748Z 18008KT 36/13 A2997 RMK A01 T03560134  RH  026%=      5-min Rain = 0
KPG1 201749Z 17008G14KT 35/13 A2997 RMK A01 T03510133  RH  027%=      5-min Rain = 0
KPG1 201750Z 16008G13KT 35/13 A2997 RMK A01 T03510133  RH  027%=      5-min Rain = 0
KPG1 201751Z 17006KT 35/13 A2997 RMK A01 T03500133  RH  027%=      5-min Rain = 0
KPG1 201752Z 19006KT 35/13 A2997 RMK A01 T03510133  RH  027%=      5-min Rain = 0
KPG1 201753Z 20003KT 35/13 A2997 RMK A01 T03520133  RH  027%=      5-min Rain = 0
KPG1 201754Z 23001KT 35/13 A2997 RMK A01 T03520133  RH  027%=      5-min Rain = 0
KPG1 201755Z 17003KT 35/13 A2997 RMK A01 T03510133  RH  027%=      5-min Rain = 0
KPG1 201756Z 13007KT 35/13 A2997 RMK A01 T03540134  RH  027%=      5-min Rain = 0
KPG1 201757Z 12005KT 36/13 A2997 RMK A01 T03560133  RH  026%=      5-min Rain = 0
KPG1 201758Z 14006KT 36/13 A2997 RMK A01 T03550134  RH  026%=      5-min Rain = 0
KPG1 201759Z 13008KT 36/14 A2997 RMK A01 T03590135  RH  026%=      5-min Rain = 0
KPG1 201800Z 11006KT 36/13 A2997 RMK A01 T03580132  RH  026%=      5-min Rain = 0
KPG1 201801Z 13005KT 35/13 A2997 RMK A01 T03540132  RH  026%=      5-min Rain = 0
KPG1 201802Z 12002KT 35/13 A2997 RMK A01 T03540132  RH  026%=      5-min Rain = 0
KPG1 201803Z 05002KT 36/13 A2997 RMK A01 T03550133  RH  026%=      5-min Rain = 0
KPG1 201804Z 11002KT 36/13 A2996 RMK A01 T03560132  RH  026%=      5-min Rain = 0
KPG1 201805Z 13003KT 36/13 A2996 RMK A01 T03580133  RH  026%=      5-min Rain = 0
KPG1 201806Z 16005KT 36/13 A2996 RMK A01 T03590133  RH  026%=      5-min Rain = 0
KPG1 201807Z 16004KT 36/13 A2996 RMK A01 T03590132  RH  026%=      5-min Rain = 0
KPG1 201808Z 15001KT 36/13 A2996 RMK A01 T03590132  RH  026%=      5-min Rain = 0
KPG1 201809Z 17003KT 36/13 A2996 RMK A01 T03600132  RH  026%=      5-min Rain = 0
KPG1 201810Z 09005KT 36/13 A2996 RMK A01 T03590133  RH  026%=      5-min Rain = 0
KPG1 201811Z 06003KT 36/13 A2996 RMK A01 T03570132  RH  026%=      5-min Rain = 0
KPG1 201812Z 05003KT 36/13 A2996 RMK A01 T03590134  RH  026%=      5-min Rain = 0
KPG1 201813Z 33004KT 36/13 A2996 RMK A01 T03620133  RH  025%=      5-min Rain = 0
KPG1 201814Z 27003KT 36/13 A2996 RMK A01 T03590131  RH  026%=      5-min Rain = 0
KPG1 201815Z 18006G11KT 36/13 A2996 RMK A01 T03550131  RH  026%=      5-min Rain = 0
KPG1 201816Z 13012KT 36/13 A2996 RMK A01 T03570133  RH  026%=      5-min Rain = 0
KPG1 201817Z 12009KT 36/13 A2996 RMK A01 T03630132  RH  025%=      5-min Rain = 0
KPG1 201818Z 13009KT 36/13 A2996 RMK A01 T03620132  RH  025%=      5-min Rain = 0
KPG1 201819Z 12007KT 36/13 A2996 RMK A01 T03620132  RH  025%=      5-min Rain = 0
KPG1 201820Z 12007KT 36/13 A2996 RMK A01 T03620132  RH  025%=      5-min Rain = 0
KPG1 201821Z 11008KT 36/13 A2996 RMK A01 T03640133  RH  025%=      5-min Rain = 0
KPG1 201822Z 11007KT 37/13 A2996 RMK A01 T03660132  RH  025%=      5-min Rain = 0
KPG1 201823Z 10005KT 37/13 A2996 RMK A01 T03660132  RH  025%=      5-min Rain = 0
KPG1 201824Z 12004KT 37/13 A2996 RMK A01 T03660131  RH  025%=      5-min Rain = 0
KPG1 201825Z 12008KT 37/13 A2996 RMK A01 T03680133  RH  025%=      5-min Rain = 0
KPG1 201826Z 10008G13KT 37/13 A2996 RMK A01 T03670130  RH  024%=      5-min Rain = 0
KPG1 201827Z 11004KT 36/13 A2996 RMK A01 T03630132  RH  025%=      5-min Rain = 0
KPG1 201828Z 08002KT 37/13 A2996 RMK A01 T03660133  RH  025%=      5-min Rain = 0
KPG1 201829Z 11004KT 37/13 A2995 RMK A01 T03690134  RH  025%=      5-min Rain = 0
KPG1 201830Z 13004KT 37/14 A2995 RMK A01 T03720135  RH  024%=      5-min Rain = 0
KPG1 201831Z 15008KT 37/13 A2995 RMK A01 T03730133  RH  024%=      5-min Rain = 0
KPG1 201832Z 13009KT 37/13 A2995 RMK A01 T03710134  RH  024%=      5-min Rain = 0
KPG1 201833Z 11005G10KT 37/13 A2995 RMK A01 T03670131  RH  024%=      5-min Rain = 0
KPG1 201834Z 04003KT 37/13 A2995 RMK A01 T03650132  RH  025%=      5-min Rain = 0
KPG1 201835Z 01004KT 37/13 A2995 RMK A01 T03650131  RH  025%=      5-min Rain = 0
KPG1 201836Z 35002KT 36/13 A2995 RMK A01 T03640131  RH  025%=      5-min Rain = 0
KPG1 201837Z 16007KT 37/13 A2995 RMK A01 T03650133  RH  025%=      5-min Rain = 0
KPG1 201838Z 16010KT 37/13 A2995 RMK A01 T03680132  RH  024%=      5-min Rain = 0
KPG1 201839Z 16006KT 37/13 A2995 RMK A01 T03670132  RH  025%=      5-min Rain = 0
KPG1 201840Z 22007KT 37/13 A2995 RMK A01 T03690132  RH  024%=      5-min Rain = 0
KPG1 201841Z 20008KT 37/13 A2995 RMK A01 T03700133  RH  024%=      5-min Rain = 0
KPG1 201842Z 19005KT 37/13 A2995 RMK A01 T03670129  RH  024%=      5-min Rain = 0
KPG1 201843Z 21009G15KT 36/13 A2995 RMK A01 T03630131  RH  025%=      5-min Rain = 0
KPG1 201844Z 22011KT 36/13 A2995 RMK A01 T03640129  RH  025%=      5-min Rain = 0
KPG1 201845Z 21010KT 37/13 A2995 RMK A01 T03650130  RH  024%=      5-min Rain = 0
KPG1 201846Z 20007KT 36/13 A2995 RMK A01 T03640130  RH  025%=      5-min Rain = 0
KPG1 201847Z 20005KT 37/13 A2994 RMK A01 T03670130  RH  024%=      5-min Rain = 0
KPG1 201848Z 23006KT 37/13 A2994 RMK A01 T03680130  RH  024%=      5-min Rain = 0
KPG1 201849Z 22006KT 37/13 A2994 RMK A01 T03650129  RH  024%=      5-min Rain = 0
KPG1 201850Z 23005KT 36/13 A2994 RMK A01 T03640131  RH  025%=      5-min Rain = 0
KPG1 201851Z 23005KT 36/13 A2994 RMK A01 T03640132  RH  025%=      5-min Rain = 0
KPG1 201852Z 22005KT 37/13 A2994 RMK A01 T03690134  RH  025%=      5-min Rain = 0
KPG1 201853Z 21009KT 38/13 A2994 RMK A01 T03750133  RH  024%=      5-min Rain = 0
KPG1 201854Z 20008KT 38/13 A2994 RMK A01 T03750131  RH  023%=      5-min Rain = 0
KPG1 201855Z 21008KT 37/13 A2994 RMK A01 T03720132  RH  024%=      5-min Rain = 0
KPG1 201856Z 23006KT 37/13 A2994 RMK A01 T03700131  RH  024%=      5-min Rain = 0
KPG1 201857Z 22004KT 37/13 A2994 RMK A01 T03690130  RH  024%=      5-min Rain = 0
KPG1 201858Z 19007KT 37/13 A2994 RMK A01 T03680131  RH  024%=      5-min Rain = 0
KPG1 201859Z 22009KT 37/13 A2994 RMK A01 T03710130  RH  024%=      5-min Rain = 0
KPG1 201900Z 23007KT 37/13 A2994 RMK A01 T03690128  RH  024%=      5-min Rain = 0
KPG1 201901Z 23003KT 36/13 A2994 RMK A01 T03640128  RH  024%=      5-min Rain = 0
KPG1 201902Z 21006KT 36/13 A2994 RMK A01 T03640129  RH  025%=      5-min Rain = 0
KPG1 201903Z 22002KT 36/13 A2994 RMK A01 T03640128  RH  024%=      5-min Rain = 0
KPG1 201904Z 20002KT 36/13 A2994 RMK A01 T03640129  RH  024%=      5-min Rain = 0
KPG1 201905Z 18003KT 37/13 A2994 RMK A01 T03670131  RH  024%=      5-min Rain = 0
KPG1 201906Z 23003KT 37/13 A2994 RMK A01 T03740132  RH  024%=      5-min Rain = 0
KPG1 201907Z 24004KT 38/13 A2994 RMK A01 T03780131  RH  023%=      5-min Rain = 0
KPG1 201908Z 23005KT 38/13 A2994 RMK A01 T03790131  RH  023%=      5-min Rain = 0
KPG1 201909Z 22005KT 38/13 A2994 RMK A01 T03800130  RH  023%=      5-min Rain = 0
KPG1 201910Z 23005KT 38/13 A2994 RMK A01 T03800130  RH  023%=      5-min Rain = 0
KPG1 201911Z 22004KT 38/13 A2994 RMK A01 T03770128  RH  023%=      5-min Rain = 0
KPG1 201912Z 20004KT 37/13 A2994 RMK A01 T03740129  RH  023%=      5-min Rain = 0
KPG1 201913Z 18003KT 37/13 A2994 RMK A01 T03720129  RH  023%=      5-min Rain = 0
KPG1 201914Z 17005KT 37/13 A2994 RMK A01 T03720130  RH  024%=      5-min Rain = 0
KPG1 201915Z 13007KT 37/13 A2993 RMK A01 T03730129  RH  023%=      5-min Rain = 0
KPG1 201916Z 12007KT 37/13 A2993 RMK A01 T03740128  RH  023%=      5-min Rain = 0
KPG1 201917Z 12007KT 38/13 A2993 RMK A01 T03780130  RH  023%=      5-min Rain = 0
KPG1 201918Z 12008KT 38/13 A2993 RMK A01 T03810129  RH  022%=      5-min Rain = 0
KPG1 201919Z 12009KT 38/13 A2993 RMK A01 T03810128  RH  022%=      5-min Rain = 0
KPG1 201920Z 13008KT 38/13 A2993 RMK A01 T03800129  RH  022%=      5-min Rain = 0
KPG1 201921Z 15006KT 38/13 A2993 RMK A01 T03780128  RH  023%=      5-min Rain = 0
KPG1 201922Z 15003KT 38/13 A2993 RMK A01 T03770128  RH  023%=      5-min Rain = 0
KPG1 201923Z 15005KT 38/13 A2993 RMK A01 T03770129  RH  023%=      5-min Rain = 0
KPG1 201924Z 16003KT 38/13 A2993 RMK A01 T03760128  RH  023%=      5-min Rain = 0
KPG1 201925Z 19002KT 37/13 A2993 RMK A01 T03730127  RH  023%=      5-min Rain = 0
KPG1 201926Z 22001KT 37/13 A2993 RMK A01 T03730126  RH  023%=      5-min Rain = 0
KPG1 201927Z 19003KT 37/13 A2993 RMK A01 T03720127  RH  023%=      5-min Rain = 0
KPG1 201928Z 15006KT 37/13 A2993 RMK A01 T03720128  RH  023%=      5-min Rain = 0
KPG1 201929Z 16003KT 37/13 A2993 RMK A01 T03730127  RH  023%=      5-min Rain = 0
KPG1 201930Z 16004G9KT 37/13 A2993 RMK A01 T03720128  RH  023%=      5-min Rain = 0
KPG1 201931Z 15005KT 37/13 A2993 RMK A01 T03730128  RH  023%=      5-min Rain = 0
KPG1 201932Z 15004KT 37/13 A2993 RMK A01 T03730129  RH  023%=      5-min Rain = 0
KPG1 201933Z 17006KT 38/13 A2993 RMK A01 T03750130  RH  023%=      5-min Rain = 0
KPG1 201934Z 19003KT 38/13 A2993 RMK A01 T03780128  RH  023%=      5-min Rain = 0
KPG1 201935Z 25002KT 38/13 A2993 RMK A01 T03780128  RH  023%=      5-min Rain = 0
KPG1 201936Z 19004KT 38/13 A2993 RMK A01 T03770129  RH  023%=      5-min Rain = 0
KPG1 201937Z 16004KT 38/13 A2993 RMK A01 T03790127  RH  022%=      5-min Rain = 0
KPG1 201938Z 17003KT 38/13 A2993 RMK A01 T03780127  RH  022%=      5-min Rain = 0
KPG1 201939Z 17002KT 38/13 A2993 RMK A01 T03760127  RH  023%=      5-min Rain = 0
KPG1 201940Z 24004KT 37/13 A2993 RMK A01 T03730125  RH  023%=      5-min Rain = 0
KPG1 201941Z 25004KT 37/13 A2992 RMK A01 T03740125  RH  022%=      5-min Rain = 0
KPG1 201942Z 27001KT 37/12 A2992 RMK A01 T03740124  RH  022%=      5-min Rain = 0
KPG1 201943Z 23004KT 37/13 A2992 RMK A01 T03740127  RH  023%=      5-min Rain = 0
KPG1 201944Z 23003KT 38/13 A2992 RMK A01 T03770125  RH  022%=      5-min Rain = 0
KPG1 201945Z 23002KT 38/12 A2992 RMK A01 T03760124  RH  022%=      5-min Rain = 0
KPG1 201946Z 25001KT 38/13 A2992 RMK A01 T03750125  RH  022%=      5-min Rain = 0
KPG1 201947Z 26006KT 38/13 A2992 RMK A01 T03760126  RH  022%=      5-min Rain = 0
KPG1 201948Z 28004KT 38/13 A2992 RMK A01 T03760125  RH  022%=      5-min Rain = 0
KPG1 201949Z 27002KT 38/13 A2992 RMK A01 T03760126  RH  022%=      5-min Rain = 0
KPG1 201950Z 27003KT 38/13 A2992 RMK A01 T03800126  RH  022%=      5-min Rain = 0
KPG1 201951Z 25004KT 38/12 A2992 RMK A01 T03830124  RH  021%=      5-min Rain = 0
KPG1 201952Z 26003KT 38/12 A2992 RMK A01 T03840123  RH  021%=      5-min Rain = 0
KPG1 201953Z 26002KT 38/12 A2992 RMK A01 T03820122  RH  021%=      5-min Rain = 0
KPG1 201954Z 25002KT 38/12 A2992 RMK A01 T03810123  RH  022%=      5-min Rain = 0
KPG1 201955Z 21004KT 38/12 A2992 RMK A01 T03830124  RH  021%=      5-min Rain = 0
KPG1 201956Z 14004KT 39/13 A2992 RMK A01 T03860126  RH  021%=      5-min Rain = 0
KPG1 201957Z 13006KT 39/13 A2992 RMK A01 T03870127  RH  021%=      5-min Rain = 0
KPG1 201958Z 14006KT 39/13 A2992 RMK A01 T03860126  RH  021%=      5-min Rain = 0
KPG1 201959Z 12010KT 39/13 A2991 RMK A01 T03850126  RH  021%=      5-min Rain = 0
KPG1 202000Z 12007KT 38/12 A2992 RMK A01 T03830124  RH  021%=      5-min Rain = 0
KPG1 202001Z 12006KT 38/13 A2992 RMK A01 T03820125  RH  022%=      5-min Rain = 0
KPG1 202002Z 12007KT 38/13 A2992 RMK A01 T03810125  RH  022%=      5-min Rain = 0
KPG1 202003Z 11004KT 38/12 A2992 RMK A01 T03790123  RH  022%=      5-min Rain = 0
KPG1 202004Z 03002KT 38/12 A2991 RMK A01 T03780122  RH  022%=      5-min Rain = 0
KPG1 202005Z 19001KT 38/12 A2991 RMK A01 T03780122  RH  022%=      5-min Rain = 0
KPG1 202006Z 13003KT 38/12 A2991 RMK A01 T03770123  RH  022%=      5-min Rain = 0
KPG1 202007Z 09002KT 38/12 A2991 RMK A01 T03790123  RH  022%=      5-min Rain = 0
KPG1 202008Z 08006KT 38/12 A2991 RMK A01 T03780124  RH  022%=      5-min Rain = 0
KPG1 202009Z 09004KT 38/12 A2991 RMK A01 T03790124  RH  022%=      5-min Rain = 0
KPG1 202010Z 06004KT 38/13 A2991 RMK A01 T03830126  RH  022%=      5-min Rain = 0
KPG1 202011Z 03006KT 38/13 A2991 RMK A01 T03830125  RH  021%=      5-min Rain = 0
KPG1 202012Z 06005KT 38/12 A2991 RMK A01 T03800123  RH  022%=      5-min Rain = 0
KPG1 202013Z 04002KT 37/12 A2991 RMK A01 T03740121  RH  022%=      5-min Rain = 0
KPG1 202014Z 35002KT 37/12 A2991 RMK A01 T03710122  RH  022%=      5-min Rain = 0
KPG1 202015Z 34002KT 37/12 A2991 RMK A01 T03690122  RH  023%=      5-min Rain = 0
KPG1 202016Z 18002KT 37/13 A2991 RMK A01 T03730125  RH  023%=      5-min Rain = 0
KPG1 202017Z 20004KT 38/12 A2991 RMK A01 T03800124  RH  022%=      5-min Rain = 0
KPG1 202018Z 23003KT 38/12 A2991 RMK A01 T03820122  RH  021%=      5-min Rain = 0
KPG1 202019Z 29003KT 38/12 A2991 RMK A01 T03820122  RH  021%=      5-min Rain = 0
KPG1 202020Z 23003KT 38/12 A2991 RMK A01 T03830123  RH  021%=      5-min Rain = 0
KPG1 202021Z 18006KT 39/13 A2991 RMK A01 T03860125  RH  021%=      5-min Rain = 0
KPG1 202022Z 15007KT 39/13 A2991 RMK A01 T03870126  RH  021%=      5-min Rain = 0
KPG1 202023Z 14005KT 39/13 A2991 RMK A01 T03870125  RH  021%=      5-min Rain = 0
KPG1 202024Z 12004KT 39/12 A2991 RMK A01 T03850124  RH  021%=      5-min Rain = 0
KPG1 202025Z 09003KT 39/13 A2991 RMK A01 T03850127  RH  022%=      5-min Rain = 0
KPG1 202026Z 10004KT 39/13 A2991 RMK A01 T03880127  RH  021%=      5-min Rain = 0
KPG1 202027Z 07002KT 39/13 A2991 RMK A01 T03870129  RH  022%=      5-min Rain = 0
KPG1 202028Z 04007KT 39/13 A2991 RMK A01 T03880131  RH  022%=      5-min Rain = 0
KPG1 202029Z 03010KT 39/13 A299 RMK A01 T03890130  RH  022%=      5-min Rain = 0
KPG1 202030Z 02009KT 39/13 A299 RMK A01 T03880130  RH  022%=      5-min Rain = 0
KPG1 202031Z 02008KT 39/13 A299 RMK A01 T03890130  RH  022%=      5-min Rain = 0
KPG1 202032Z 04009KT 39/13 A299 RMK A01 T03850128  RH  022%=      5-min Rain = 0
KPG1 202033Z 05010KT 38/13 A299 RMK A01 T03800126  RH  022%=      5-min Rain = 0
KPG1 202034Z 05009KT 38/13 A299 RMK A01 T03770128  RH  023%=      5-min Rain = 0
KPG1 202035Z 03005KT 38/13 A299 RMK A01 T03780128  RH  023%=      5-min Rain = 0
KPG1 202036Z 01007KT 38/13 A299 RMK A01 T03780128  RH  023%=      5-min Rain = 0
KPG1 202037Z 36003KT 38/13 A299 RMK A01 T03770127  RH  022%=      5-min Rain = 0
KPG1 202038Z 01003G8KT 38/13 A299 RMK A01 T03750127  RH  023%=      5-min Rain = 0
KPG1 202039Z 03005KT 38/13 A299 RMK A01 T03780129  RH  023%=      5-min Rain = 0
KPG1 202040Z 01004KT 38/13 A299 RMK A01 T03820130  RH  022%=      5-min Rain = 0
KPG1 202041Z 03006KT 38/13 A299 RMK A01 T03840129  RH  022%=      5-min Rain = 0
KPG1 202042Z 05009KT 39/13 A299 RMK A01 T03850129  RH  022%=      5-min Rain = 0
KPG1 202043Z 09011KT 39/13 A299 RMK A01 T03860127  RH  021%=      5-min Rain = 0
KPG1 202044Z 09010KT 38/13 A299 RMK A01 T03830125  RH  021%=      5-min Rain = 0
KPG1 202045Z 07007G12KT 38/13 A299 RMK A01 T03800125  RH  022%=      5-min Rain = 0
KPG1 202046Z 08007KT 38/13 A299 RMK A01 T03810126  RH  022%=      5-min Rain = 0
KPG1 202047Z 05006KT 38/13 A299 RMK A01 T03810125  RH  022%=      5-min Rain = 0
KPG1 202048Z 04007KT 38/13 A299 RMK A01 T03820126  RH  022%=      5-min Rain = 0
KPG1 202049Z 01005KT 39/13 A299 RMK A01 T03850126  RH  022%=      5-min Rain = 0
KPG1 202050Z 01004KT 39/13 A299 RMK A01 T03860127  RH  021%=      5-min Rain = 0
KPG1 202051Z 35005KT 39/13 A299 RMK A01 T03870125  RH  021%=      5-min Rain = 0
KPG1 202052Z 01005KT 39/13 A299 RMK A01 T03860127  RH  021%=      5-min Rain = 0
KPG1 202053Z 01003KT 39/13 A2989 RMK A01 T03870125  RH  021%=      5-min Rain = 0
KPG1 202054Z 32001KT 39/13 A2989 RMK A01 T03870125  RH  021%=      5-min Rain = 0
KPG1 202055Z 25001KT 39/12 A2989 RMK A01 T03880123  RH  021%=      5-min Rain = 0
KPG1 202056Z 26002KT 39/12 A2989 RMK A01 T03870124  RH  021%=      5-min Rain = 0
KPG1 202057Z 08002KT 39/12 A2989 RMK A01 T03880124  RH  021%=      5-min Rain = 0
KPG1 202058Z 14001KT 39/13 A2989 RMK A01 T03910126  RH  021%=      5-min Rain = 0
KPG1 202059Z 15002KT 39/13 A2989 RMK A01 T03920125  RH  020%=      5-min Rain = 0
KPG1 202100Z 02006G11KT 39/12 A2989 RMK A01 T03930122  RH  020%=      5-min Rain = 0
KPG1 202101Z 01007KT 39/12 A2989 RMK A01 T03940119  RH  020%=      5-min Rain = 0
KPG1 202102Z 03008KT 40/12 A2989 RMK A01 T03960118  RH  019%=      5-min Rain = 0
KPG1 202103Z 05005KT 39/12 A2989 RMK A01 T03930115  RH  019%=      5-min Rain = 0
KPG1 202104Z 05004KT 39/12 A2989 RMK A01 T03880116  RH  020%=      5-min Rain = 0
KPG1 202105Z 13004KT 39/12 A2989 RMK A01 T03900119  RH  020%=      5-min Rain = 0
KPG1 202106Z 11008KT 40/12 A2989 RMK A01 T03950120  RH  019%=      5-min Rain = 0
KPG1 202107Z 10009KT 40/12 A2989 RMK A01 T03970118  RH  019%=      5-min Rain = 0
KPG1 202108Z 07006KT 40/12 A2989 RMK A01 T03950120  RH  019%=      5-min Rain = 0
KPG1 202109Z 03012G19KT 40/12 A2989 RMK A01 T03970120  RH  019%=      5-min Rain = 0
KPG1 202110Z 15010G16KT 40/12 A2988 RMK A01 T03980119  RH  019%=      5-min Rain = 0
KPG1 202111Z 14005KT 39/12 A2989 RMK A01 T03940116  RH  019%=      5-min Rain = 0
KPG1 202112Z 11009G14KT 39/12 A2989 RMK A01 T03920119  RH  020%=      5-min Rain = 0
KPG1 202113Z 13011KT 39/12 A2989 RMK A01 T03920120  RH  020%=      5-min Rain = 0
KPG1 202114Z 12010KT 39/12 A2989 RMK A01 T03900120  RH  020%=      5-min Rain = 0
KPG1 202115Z 13008KT 39/12 A2989 RMK A01 T03850120  RH  021%=      5-min Rain = 0
KPG1 202116Z 11008KT 38/12 A2989 RMK A01 T03830120  RH  021%=      5-min Rain = 0
KPG1 202117Z 09002KT 38/12 A2989 RMK A01 T03800115  RH  021%=      5-min Rain = 0
KPG1 202118Z 13008KT 38/12 A2989 RMK A01 T03780118  RH  021%=      5-min Rain = 0
KPG1 202119Z 13007KT 38/12 A2989 RMK A01 T03770118  RH  021%=      5-min Rain = 0
KPG1 202120Z 12004KT 38/12 A2989 RMK A01 T03810118  RH  021%=      5-min Rain = 0
KPG1 202121Z 09004KT 38/12 A2989 RMK A01 T03810118  RH  021%=      5-min Rain = 0
KPG1 202122Z 11004KT 38/12 A2989 RMK A01 T03830119  RH  021%=      5-min Rain = 0
KPG1 202123Z 08007KT 39/12 A2989 RMK A01 T03860120  RH  020%=      5-min Rain = 0
KPG1 202124Z 07013KT 39/12 A2988 RMK A01 T03890117  RH  020%=      5-min Rain = 0
KPG1 202125Z 07010KT 39/12 A2989 RMK A01 T03860115  RH  020%=      5-min Rain = 0
KPG1 202126Z 04005KT 38/11 A2988 RMK A01 T03810114  RH  020%=      5-min Rain = 0
KPG1 202127Z 35005KT 38/12 A2988 RMK A01 T03820117  RH  021%=      5-min Rain = 0
KPG1 202128Z 35003KT 38/12 A2988 RMK A01 T03840118  RH  020%=      5-min Rain = 0
KPG1 202129Z 02004KT 39/12 A2988 RMK A01 T03880120  RH  020%=      5-min Rain = 0
KPG1 202130Z 03009KT 39/12 A2988 RMK A01 T03920120  RH  020%=      5-min Rain = 0
KPG1 202131Z 03008KT 39/12 A2988 RMK A01 T03910117  RH  020%=      5-min Rain = 0
KPG1 202132Z 02005KT 39/12 A2988 RMK A01 T03890116  RH  020%=      5-min Rain = 0
KPG1 202133Z 00004KT 39/11 A2988 RMK A01 T03870114  RH  020%=      5-min Rain = 0
KPG1 202134Z 34003KT 38/12 A2988 RMK A01 T03840115  RH  020%=      5-min Rain = 0
KPG1 202135Z 34001KT 39/12 A2988 RMK A01 T03860116  RH  020%=      5-min Rain = 0
KPG1 202136Z 10002KT 39/12 A2988 RMK A01 T03880117  RH  020%=      5-min Rain = 0
KPG1 202137Z 11003G9KT 39/12 A2988 RMK A01 T03930118  RH  020%=      5-min Rain = 0
KPG1 202138Z 12008KT 39/12 A2988 RMK A01 T03940117  RH  019%=      5-min Rain = 0
KPG1 202139Z 13010KT 40/12 A2988 RMK A01 T03970115  RH  019%=      5-min Rain = 0
KPG1 202140Z 14011KT 40/11 A2988 RMK A01 T03960113  RH  018%=      5-min Rain = 0
KPG1 202141Z 12008KT 40/11 A2988 RMK A01 T03950111  RH  018%=      5-min Rain = 0
KPG1 202142Z 09005KT 39/11 A2988 RMK A01 T03900111  RH  019%=      5-min Rain = 0
KPG1 202143Z 13006KT 39/11 A2988 RMK A01 T03900114  RH  019%=      5-min Rain = 0
KPG1 202144Z 13006KT 39/11 A2988 RMK A01 T03920113  RH  019%=      5-min Rain = 0
KPG1 202145Z 16005KT 39/11 A2988 RMK A01 T03910112  RH  019%=      5-min Rain = 0
KPG1 202146Z 10006KT 39/11 A2988 RMK A01 T03910113  RH  019%=      5-min Rain = 0
KPG1 202147Z 07012KT 39/12 A2988 RMK A01 T03910116  RH  019%=      5-min Rain = 0
KPG1 202148Z 07008KT 39/12 A2988 RMK A01 T03870116  RH  020%=      5-min Rain = 0
KPG1 202149Z 08008KT 38/12 A2988 RMK A01 T03820117  RH  020%=      5-min Rain = 0
KPG1 202150Z 07008KT 38/12 A2988 RMK A01 T03820119  RH  021%=      5-min Rain = 0
KPG1 202151Z 06007KT 38/12 A2988 RMK A01 T03820118  RH  021%=      5-min Rain = 0
KPG1 202152Z 06009KT 38/12 A2988 RMK A01 T03840118  RH  020%=      5-min Rain = 0
KPG1 202153Z 06008KT 39/12 A2988 RMK A01 T03850116  RH  020%=      5-min Rain = 0
KPG1 202154Z 05005KT 38/12 A2988 RMK A01 T03840115  RH  020%=      5-min Rain = 0
KPG1 202155Z 03007KT 38/12 A2987 RMK A01 T03820116  RH  020%=      5-min Rain = 0
KPG1 202156Z 04010KT 38/12 A2987 RMK A01 T03840115  RH  020%=      5-min Rain = 0
KPG1 202157Z 03011KT 39/11 A2987 RMK A01 T03850113  RH  020%=      5-min Rain = 0
KPG1 202158Z 06008KT 39/11 A2987 RMK A01 T03850114  RH  020%=      5-min Rain = 0
KPG1 202159Z 09006KT 39/12 A2987 RMK A01 T03860116  RH  020%=      5-min Rain = 0
KPG1 202200Z 10004KT 39/12 A2987 RMK A01 T03850115  RH  020%=      5-min Rain = 0
KPG1 202201Z 11001KT 38/11 A2987 RMK A01 T03840114  RH  020%=      5-min Rain = 0
KPG1 202202Z 10006KT 38/12 A2987 RMK A01 T03830115  RH  020%=      5-min Rain = 0
KPG1 202203Z 09010KT 38/12 A2987 RMK A01 T03830117  RH  020%=      5-min Rain = 0
KPG1 202204Z 07008KT 38/12 A2987 RMK A01 T03830117  RH  020%=      5-min Rain = 0
KPG1 202205Z 06005KT 38/12 A2987 RMK A01 T03830117  RH  020%=      5-min Rain = 0
KPG1 202206Z 07005KT 38/12 A2987 RMK A01 T03840117  RH  020%=      5-min Rain = 0
KPG1 202207Z 07012G17KT 38/12 A2987 RMK A01 T03840116  RH  020%=      5-min Rain = 0
KPG1 202208Z 05014KT 39/12 A2987 RMK A01 T03850116  RH  020%=      5-min Rain = 0
KPG1 202209Z 06012G17KT 39/12 A2987 RMK A01 T03850115  RH  020%=      5-min Rain = 0
KPG1 202210Z 04010KT 38/12 A2987 RMK A01 T03830115  RH  020%=      5-min Rain = 0
KPG1 202211Z 02011KT 39/12 A2987 RMK A01 T03860118  RH  020%=      5-min Rain = 0
KPG1 202212Z 03011KT 39/12 A2987 RMK A01 T03870117  RH  020%=      5-min Rain = 0
KPG1 202213Z 04013KT 39/12 A2986 RMK A01 T03880117  RH  020%=      5-min Rain = 0
KPG1 202214Z 03011KT 39/11 A2987 RMK A01 T03860114  RH  020%=      5-min Rain = 0
KPG1 202215Z 06009KT 39/12 A2986 RMK A01 T03860115  RH  020%=      5-min Rain = 0
KPG1 202216Z 05009KT 39/12 A2986 RMK A01 T03860115  RH  020%=      5-min Rain = 0
KPG1 202217Z 05011KT 39/12 A2986 RMK A01 T03860115  RH  020%=      5-min Rain = 0
KPG1 202218Z 08009KT 39/11 A2986 RMK A01 T03870113  RH  019%=      5-min Rain = 0
KPG1 202219Z 06010KT 39/11 A2986 RMK A01 T03870113  RH  019%=      5-min Rain = 0
KPG1 202220Z 03007KT 39/11 A2986 RMK A01 T03870113  RH  019%=      5-min Rain = 0
KPG1 202221Z 04008G15KT 39/11 A2986 RMK A01 T03900114  RH  019%=      5-min Rain = 0
KPG1 202222Z 05014G19KT 39/11 A2986 RMK A01 T03920112  RH  019%=      5-min Rain = 0
KPG1 202223Z 07012G21KT 39/11 A2986 RMK A01 T03910110  RH  019%=      5-min Rain = 0
KPG1 202224Z 05006KT 39/11 A2986 RMK A01 T03880109  RH  019%=      5-min Rain = 0
KPG1 202225Z 07004KT 39/11 A2986 RMK A01 T03870107  RH  019%=      5-min Rain = 0
KPG1 202226Z 07003KT 39/11 A2986 RMK A01 T03860107  RH  019%=      5-min Rain = 0
KPG1 202227Z 05006KT 39/11 A2986 RMK A01 T03860108  RH  019%=      5-min Rain = 0
KPG1 202228Z 08007KT 39/11 A2986 RMK A01 T03870107  RH  019%=      5-min Rain = 0
KPG1 202229Z 07007KT 39/10 A2986 RMK A01 T03870104  RH  018%=      5-min Rain = 0
KPG1 202230Z 06012KT 39/11 A2986 RMK A01 T03860105  RH  019%=      5-min Rain = 0
KPG1 202231Z 06011KT 39/11 A2986 RMK A01 T03870105  RH  018%=      5-min Rain = 0
KPG1 202232Z 04008KT 39/10 A2986 RMK A01 T03860104  RH  018%=      5-min Rain = 0
KPG1 202233Z 02007KT 39/11 A2986 RMK A01 T03890105  RH  018%=      5-min Rain = 0
KPG1 202234Z 02006KT 39/10 A2986 RMK A01 T03900103  RH  018%=      5-min Rain = 0
KPG1 202235Z 02007KT 39/10 A2986 RMK A01 T03880103  RH  018%=      5-min Rain = 0
KPG1 202236Z 01006KT 39/10 A2986 RMK A01 T03880102  RH  018%=      5-min Rain = 0
KPG1 202237Z 02006KT 39/10 A2985 RMK A01 T03870101  RH  018%=      5-min Rain = 0
KPG1 202238Z 02006KT 39/10 A2985 RMK A01 T03860102  RH  018%=      5-min Rain = 0
KPG1 202239Z 01005KT 39/11 A2985 RMK A01 T03860105  RH  018%=      5-min Rain = 0
KPG1 202240Z 05007KT 39/10 A2985 RMK A01 T03870104  RH  018%=      5-min Rain = 0
KPG1 202241Z 07008KT 39/11 A2985 RMK A01 T03880106  RH  018%=      5-min Rain = 0
KPG1 202242Z 07007KT 39/11 A2985 RMK A01 T03910107  RH  018%=      5-min Rain = 0
KPG1 202243Z 05007G12KT 39/11 A2985 RMK A01 T03930107  RH  018%=      5-min Rain = 0
KPG1 202244Z 05011KT 39/11 A2985 RMK A01 T03930107  RH  018%=      5-min Rain = 0
KPG1 202245Z 07011G16KT 39/11 A2986 RMK A01 T03890106  RH  018%=      5-min Rain = 0
KPG1 202246Z 08010KT 39/10 A2986 RMK A01 T03860104  RH  018%=      5-min Rain = 0
KPG1 202247Z 06011KT 39/10 A2985 RMK A01 T03850103  RH  018%=      5-min Rain = 0
KPG1 202248Z 05010KT 39/10 A2985 RMK A01 T03860102  RH  018%=      5-min Rain = 0
KPG1 202249Z 03010KT 39/10 A2985 RMK A01 T03860103  RH  018%=      5-min Rain = 0
KPG1 202250Z 05010KT 39/10 A2985 RMK A01 T03880103  RH  018%=      5-min Rain = 0
KPG1 202251Z 06011KT 39/10 A2985 RMK A01 T03900096  RH  017%=      5-min Rain = 0
KPG1 202252Z 06015KT 39/09 A2985 RMK A01 T03900088  RH  016%=      5-min Rain = 0
KPG1 202253Z 07011KT 39/09 A2985 RMK A01 T03880087  RH  016%=      5-min Rain = 0
KPG1 202254Z 08007KT 39/08 A2985 RMK A01 T03880081  RH  016%=      5-min Rain = 0
KPG1 202255Z 02008KT 39/08 A2985 RMK A01 T03890079  RH  015%=      5-min Rain = 0
KPG1 202256Z 04010KT 39/08 A2985 RMK A01 T03900078  RH  015%=      5-min Rain = 0
KPG1 202257Z 05009KT 39/08 A2985 RMK A01 T03890080  RH  015%=      5-min Rain = 0
KPG1 202258Z 02008G14KT 39/08 A2985 RMK A01 T03860079  RH  016%=      5-min Rain = 0
KPG1 202259Z 01010KT 39/08 A2985 RMK A01 T03860082  RH  016%=      5-min Rain = 0
KPG1 202300Z 07005KT 39/08 A2985 RMK A01 T03870083  RH  016%=      5-min Rain = 0
KPG1 202301Z 12006KT 39/09 A2985 RMK A01 T03890086  RH  016%=      5-min Rain = 0
KPG1 202302Z 09004KT 39/09 A2985 RMK A01 T03900085  RH  016%=      5-min Rain = 0
KPG1 202303Z 13004KT 39/09 A2985 RMK A01 T03880087  RH  016%=      5-min Rain = 0
KPG1 202304Z 13006KT 39/08 A2985 RMK A01 T03920082  RH  015%=      5-min Rain = 0
KPG1 202305Z 05005G11KT 39/08 A2985 RMK A01 T03940081  RH  015%=      5-min Rain = 0
KPG1 202306Z 05009KT 40/10 A2985 RMK A01 T03950098  RH  017%=      5-min Rain = 0
KPG1 202307Z 06006KT 39/10 A2985 RMK A01 T03940104  RH  018%=      5-min Rain = 0
KPG1 202308Z 09004KT 39/10 A2985 RMK A01 T03920104  RH  018%=      5-min Rain = 0
KPG1 202309Z 07010KT 39/11 A2985 RMK A01 T03900109  RH  019%=      5-min Rain = 0
KPG1 202310Z 08009KT 39/12 A2985 RMK A01 T03900116  RH  020%=      5-min Rain = 0
KPG1 202311Z 10009G14KT 39/11 A2985 RMK A01 T03900105  RH  018%=      5-min Rain = 0
KPG1 202312Z 10007KT 39/10 A2985 RMK A01 T03920102  RH  018%=      5-min Rain = 0
KPG1 202313Z 05002KT 39/11 A2985 RMK A01 T03930113  RH  019%=      5-min Rain = 0
KPG1 202314Z 14003G8KT 39/12 A2985 RMK A01 T03940116  RH  019%=      5-min Rain = 0
KPG1 202315Z 05004KT 40/11 A2985 RMK A01 T03950114  RH  019%=      5-min Rain = 0
KPG1 202316Z 09007KT 39/11 A2985 RMK A01 T03930109  RH  018%=      5-min Rain = 0
KPG1 202317Z 08009KT 39/10 A2984 RMK A01 T03920100  RH  017%=      5-min Rain = 0
KPG1 202318Z 07011KT 39/10 A2984 RMK A01 T03920095  RH  017%=      5-min Rain = 0
KPG1 202319Z 06011G16KT 39/08 A2984 RMK A01 T03910083  RH  016%=      5-min Rain = 0
KPG1 202320Z 06012KT 39/08 A2984 RMK A01 T03900083  RH  016%=      5-min Rain = 0
KPG1 202321Z 06005G10KT 39/09 A2984 RMK A01 T03880085  RH  016%=      5-min Rain = 0
KPG1 202322Z 07004KT 39/09 A2984 RMK A01 T03870086  RH  016%=      5-min Rain = 0
KPG1 202323Z 10008KT 39/09 A2984 RMK A01 T03900088  RH  016%=      5-min Rain = 0
KPG1 202324Z 07009KT 39/08 A2984 RMK A01 T03910084  RH  016%=      5-min Rain = 0
KPG1 202325Z 07007KT 39/10 A2984 RMK A01 T03900101  RH  018%=      5-min Rain = 0
KPG1 202326Z 06007KT 39/12 A2984 RMK A01 T03870116  RH  020%=      5-min Rain = 0
KPG1 202327Z 05005KT 39/12 A2984 RMK A01 T03860123  RH  021%=      5-min Rain = 0
KPG1 202328Z 03006KT 39/13 A2984 RMK A01 T03860125  RH  021%=      5-min Rain = 0
KPG1 202329Z 02010KT 39/13 A2984 RMK A01 T03870129  RH  022%=      5-min Rain = 0
KPG1 202330Z 03013KT 39/13 A2984 RMK A01 T03850128  RH  022%=      5-min Rain = 0
KPG1 202331Z 03015KT 38/13 A2984 RMK A01 T03830129  RH  022%=      5-min Rain = 0
KPG1 202332Z 05016KT 38/12 A2984 RMK A01 T03830123  RH  021%=      5-min Rain = 0
KPG1 202333Z 06017KT 38/10 A2984 RMK A01 T03830095  RH  018%=      5-min Rain = 0
KPG1 202334Z 06014KT 38/09 A2984 RMK A01 T03830090  RH  017%=      5-min Rain = 0
KPG1 202335Z 06009KT 38/09 A2984 RMK A01 T03820090  RH  017%=      5-min Rain = 0
KPG1 202336Z 11009KT 38/09 A2984 RMK A01 T03820087  RH  017%=      5-min Rain = 0
KPG1 202337Z 12007KT 38/09 A2984 RMK A01 T03840086  RH  017%=      5-min Rain = 0
KPG1 202338Z 11006KT 39/08 A2984 RMK A01 T03850084  RH  016%=      5-min Rain = 0
KPG1 202339Z 08007KT 39/08 A2984 RMK A01 T03860084  RH  016%=      5-min Rain = 0
KPG1 202340Z 09006KT 39/08 A2984 RMK A01 T03860083  RH  016%=      5-min Rain = 0
KPG1 202341Z 07008KT 39/09 A2984 RMK A01 T03860086  RH  016%=      5-min Rain = 0
KPG1 202342Z 08005KT 39/09 A2984 RMK A01 T03860092  RH  017%=      5-min Rain = 0
KPG1 202343Z 10003KT 39/10 A2984 RMK A01 T03870097  RH  017%=      5-min Rain = 0
KPG1 202344Z 12004KT 39/10 A2984 RMK A01 T03890095  RH  017%=      5-min Rain = 0
KPG1 202345Z 08011KT 39/11 A2984 RMK A01 T03910108  RH  019%=      5-min Rain = 0
KPG1 202346Z 08008KT 39/12 A2984 RMK A01 T03870123  RH  021%=      5-min Rain = 0
KPG1 202347Z 07007KT 38/13 A2985 RMK A01 T03840125  RH  021%=      5-min Rain = 0
KPG1 202348Z 08008KT 38/12 A2984 RMK A01 T03840123  RH  021%=      5-min Rain = 0
KPG1 202349Z 08010KT 39/12 A2985 RMK A01 T03850124  RH  021%=      5-min Rain = 0
KPG1 202350Z 06008KT 39/12 A2985 RMK A01 T03850124  RH  021%=      5-min Rain = 0
KPG1 202351Z 05010KT 38/13 A2984 RMK A01 T03830125  RH  021%=      5-min Rain = 0
KPG1 202352Z 05006G12KT 38/13 A2984 RMK A01 T03800126  RH  022%=      5-min Rain = 0
KPG1 202353Z 05012G17KT 38/13 A2984 RMK A01 T03800128  RH  022%=      5-min Rain = 0
KPG1 202354Z 09011KT 38/13 A2985 RMK A01 T03810129  RH  022%=      5-min Rain = 0
KPG1 202355Z 08011G16KT 38/13 A2985 RMK A01 T03800130  RH  022%=      5-min Rain = 0
KPG1 202356Z 07013G19KT 38/13 A2985 RMK A01 T03800130  RH  023%=      5-min Rain = 0
KPG1 202357Z 07009KT 38/13 A2985 RMK A01 T03780130  RH  023%=      5-min Rain = 0
KPG1 202358Z 07007KT 38/13 A2985 RMK A01 T03760130  RH  023%=      5-min Rain = 0
KPG1 202359Z 05009KT 38/13 A2985 RMK A01 T03760130  RH  023%=      5-min Rain = 0
KPG1 210000Z 08006KT 38/13 A2985 RMK A01 T03770131  RH  023%=      5-min Rain = 0
KPG1 210001Z 07007KT 38/13 A2985 RMK A01 T03780131  RH  023%=      5-min Rain = 0
KPG1 210002Z 06010KT 38/13 A2985 RMK A01 T03780131  RH  023%=      5-min Rain = 0
KPG1 210003Z 07010KT 38/13 A2985 RMK A01 T03780131  RH  023%=      5-min Rain = 0
KPG1 210004Z 07008KT 38/13 A2985 RMK A01 T03790134  RH  023%=      5-min Rain = 0
KPG1 210005Z 08012KT 38/13 A2985 RMK A01 T03810134  RH  023%=      5-min Rain = 0
KPG1 210006Z 08010KT 38/13 A2985 RMK A01 T03810134  RH  023%=      5-min Rain = 0
KPG1 210007Z 07010KT 38/13 A2985 RMK A01 T03790133  RH  023%=      5-min Rain = 0
KPG1 210008Z 06009KT 38/13 A2985 RMK A01 T03760133  RH  023%=      5-min Rain = 0
KPG1 210009Z 04011KT 38/13 A2984 RMK A01 T03750133  RH  024%=      5-min Rain = 0
KPG1 210010Z 04015KT 38/13 A2985 RMK A01 T03750133  RH  024%=      5-min Rain = 0
KPG1 210011Z 05011KT 38/13 A2985 RMK A01 T03750133  RH  024%=      5-min Rain = 0
KPG1 210012Z 03010G15KT 37/13 A2985 RMK A01 T03740134  RH  024%=      5-min Rain = 0
KPG1 210013Z 04011KT 38/14 A2985 RMK A01 T03750136  RH  024%=      5-min Rain = 0
KPG1 210014Z 06013KT 38/14 A2985 RMK A01 T03760136  RH  024%=      5-min Rain = 0
KPG1 210015Z 06011G18KT 38/14 A2985 RMK A01 T03770136  RH  024%=      5-min Rain = 0
KPG1 210016Z 06014KT 38/14 A2985 RMK A01 T03780136  RH  024%=      5-min Rain = 0
KPG1 210017Z 06012KT 38/14 A2985 RMK A01 T03760136  RH  024%=      5-min Rain = 0
KPG1 210018Z 07010KT 37/14 A2985 RMK A01 T03740136  RH  024%=      5-min Rain = 0
KPG1 210019Z 06011KT 37/14 A2985 RMK A01 T03730136  RH  024%=      5-min Rain = 0
KPG1 210020Z 05011KT 37/14 A2985 RMK A01 T03730136  RH  024%=      5-min Rain = 0
KPG1 210021Z 05010KT 37/14 A2985 RMK A01 T03730136  RH  024%=      5-min Rain = 0
KPG1 210022Z 06013KT 37/14 A2985 RMK A01 T03730136  RH  024%=      5-min Rain = 0
KPG1 210023Z 06013KT 37/14 A2985 RMK A01 T03730136  RH  024%=      5-min Rain = 0
KPG1 210024Z 06010KT 37/14 A2985 RMK A01 T03730136  RH  024%=      5-min Rain = 0
KPG1 210025Z 06013G18KT 37/14 A2985 RMK A01 T03740137  RH  024%=      5-min Rain = 0
KPG1 210026Z 06014KT 37/14 A2985 RMK A01 T03740136  RH  024%=      5-min Rain = 0
KPG1 210027Z 07012G17KT 37/14 A2985 RMK A01 T03740137  RH  024%=      5-min Rain = 0
KPG1 210028Z 04012KT 37/14 A2985 RMK A01 T03730137  RH  024%=      5-min Rain = 0
KPG1 210029Z 05011KT 37/14 A2985 RMK A01 T03730136  RH  024%=      5-min Rain = 0
KPG1 210030Z 05009KT 37/14 A2985 RMK A01 T03730136  RH  024%=      5-min Rain = 0
KPG1 210031Z 02011KT 37/14 A2985 RMK A01 T03730136  RH  024%=      5-min Rain = 0
KPG1 210032Z 04012KT 37/14 A2985 RMK A01 T03740136  RH  024%=      5-min Rain = 0
KPG1 210033Z 03014KT 37/13 A2985 RMK A01 T03720134  RH  024%=      5-min Rain = 0
KPG1 210034Z 03014KT 37/14 A2985 RMK A01 T03710135  RH  024%=      5-min Rain = 0
KPG1 210035Z 03014KT 37/14 A2985 RMK A01 T03710135  RH  024%=      5-min Rain = 0
KPG1 210036Z 03017KT 37/13 A2985 RMK A01 T03710134  RH  024%=      5-min Rain = 0
KPG1 210037Z 07016KT 37/13 A2985 RMK A01 T03710134  RH  024%=      5-min Rain = 0
KPG1 210038Z 06013KT 37/13 A2985 RMK A01 T03710133  RH  024%=      5-min Rain = 0
KPG1 210039Z 05012KT 37/13 A2985 RMK A01 T03700133  RH  024%=      5-min Rain = 0
KPG1 210040Z 05010KT 37/13 A2985 RMK A01 T03700132  RH  024%=      5-min Rain = 0
KPG1 210041Z 05012KT 37/13 A2985 RMK A01 T03700133  RH  024%=      5-min Rain = 0
KPG1 210042Z 06013KT 37/13 A2985 RMK A01 T03710133  RH  024%=      5-min Rain = 0
KPG1 210043Z 04011KT 37/13 A2985 RMK A01 T03710133  RH  024%=      5-min Rain = 0
KPG1 210044Z 05014KT 37/13 A2985 RMK A01 T03710133  RH  024%=      5-min Rain = 0
KPG1 210045Z 06014KT 37/13 A2985 RMK A01 T03710133  RH  024%=      5-min Rain = 0
KPG1 210046Z 04010KT 37/13 A2985 RMK A01 T03700132  RH  024%=      5-min Rain = 0
KPG1 210047Z 05010KT 37/13 A2985 RMK A01 T03690132  RH  024%=      5-min Rain = 0
KPG1 210048Z 05013KT 37/13 A2985 RMK A01 T03700132  RH  024%=      5-min Rain = 0
KPG1 210049Z 05013KT 37/13 A2985 RMK A01 T03700131  RH  024%=      5-min Rain = 0
KPG1 210050Z 07014KT 37/13 A2985 RMK A01 T03690131  RH  024%=      5-min Rain = 0
KPG1 210051Z 04012KT 37/13 A2985 RMK A01 T03680131  RH  024%=      5-min Rain = 0
KPG1 210052Z 03012KT 37/13 A2985 RMK A01 T03680132  RH  024%=      5-min Rain = 0
KPG1 210053Z 03013KT 37/13 A2985 RMK A01 T03690131  RH  024%=      5-min Rain = 0
KPG1 210054Z 03014KT 37/13 A2985 RMK A01 T03680130  RH  024%=      5-min Rain = 0
KPG1 210055Z 03013KT 37/13 A2985 RMK A01 T03670131  RH  024%=      5-min Rain = 0
KPG1 210056Z 02015KT 37/13 A2985 RMK A01 T03670130  RH  024%=      5-min Rain = 0
KPG1 210057Z 05014G19KT 37/13 A2985 RMK A01 T03660130  RH  024%=      5-min Rain = 0
KPG1 210058Z 06010KT 37/13 A2985 RMK A01 T03660131  RH  024%=      5-min Rain = 0
KPG1 210059Z 06011KT 37/13 A2985 RMK A01 T03670131  RH  024%=      5-min Rain = 0
KPG1 210100Z 06015KT 37/13 A2985 RMK A01 T03670130  RH  024%=      5-min Rain = 0
KPG1 210101Z 07015G21KT 37/13 A2985 RMK A01 T03670129  RH  024%=      5-min Rain = 0
KPG1 210102Z 05011KT 37/13 A2985 RMK A01 T03660129  RH  024%=      5-min Rain = 0
KPG1 210103Z 04010KT 37/13 A2985 RMK A01 T03660129  RH  024%=      5-min Rain = 0
KPG1 210104Z 03015KT 37/13 A2985 RMK A01 T03660129  RH  024%=      5-min Rain = 0
KPG1 210105Z 04013KT 37/13 A2985 RMK A01 T03650128  RH  024%=      5-min Rain = 0
KPG1 210106Z 03011KT 36/13 A2985 RMK A01 T03640128  RH  024%=      5-min Rain = 0
KPG1 210107Z 03010KT 37/13 A2985 RMK A01 T03650128  RH  024%=      5-min Rain = 0
KPG1 210108Z 06011KT 37/13 A2985 RMK A01 T03650128  RH  024%=      5-min Rain = 0
KPG1 210109Z 05011KT 37/13 A2985 RMK A01 T03650128  RH  024%=      5-min Rain = 0
KPG1 210110Z 04013KT 36/13 A2985 RMK A01 T03640127  RH  024%=      5-min Rain = 0
KPG1 210111Z 05010KT 36/13 A2985 RMK A01 T03640126  RH  024%=      5-min Rain = 0
KPG1 210112Z 06012G17KT 36/13 A2985 RMK A01 T03630127  RH  024%=      5-min Rain = 0
KPG1 210113Z 07013KT 36/13 A2985 RMK A01 T03630126  RH  024%=      5-min Rain = 0
KPG1 210114Z 07015G20KT 36/13 A2985 RMK A01 T03630127  RH  024%=      5-min Rain = 0
KPG1 210115Z 06012KT 36/13 A2985 RMK A01 T03630126  RH  024%=      5-min Rain = 0
KPG1 210116Z 04011KT 36/13 A2985 RMK A01 T03620126  RH  024%=      5-min Rain = 0
KPG1 210117Z 05011KT 36/13 A2986 RMK A01 T03620126  RH  024%=      5-min Rain = 0
KPG1 210118Z 06013KT 36/13 A2986 RMK A01 T03620126  RH  024%=      5-min Rain = 0
KPG1 210119Z 06012KT 36/13 A2985 RMK A01 T03610126  RH  024%=      5-min Rain = 0
KPG1 210120Z 07013KT 36/13 A2986 RMK A01 T03610125  RH  024%=      5-min Rain = 0
KPG1 210121Z 05014KT 36/13 A2986 RMK A01 T03610126  RH  024%=      5-min Rain = 0
KPG1 210122Z 06013KT 36/13 A2986 RMK A01 T03610125  RH  024%=      5-min Rain = 0
KPG1 210123Z 07011KT 36/13 A2986 RMK A01 T03600125  RH  024%=      5-min Rain = 0
KPG1 210124Z 06011G17KT 36/13 A2986 RMK A01 T03600125  RH  024%=      5-min Rain = 0
KPG1 210125Z 05016G21KT 36/13 A2986 RMK A01 T03600125  RH  025%=      5-min Rain = 0
KPG1 210126Z 06015KT 36/13 A2986 RMK A01 T03590126  RH  025%=      5-min Rain = 0
KPG1 210127Z 06016KT 36/13 A2986 RMK A01 T03590125  RH  025%=      5-min Rain = 0
KPG1 210128Z 06012G18KT 36/13 A2986 RMK A01 T03580126  RH  025%=      5-min Rain = 0
KPG1 210129Z 06014KT 36/13 A2986 RMK A01 T03580126  RH  025%=      5-min Rain = 0
KPG1 210130Z 06014KT 36/13 A2986 RMK A01 T03580126  RH  025%=      5-min Rain = 0
KPG1 210131Z 05013KT 36/13 A2986 RMK A01 T03570126  RH  025%=      5-min Rain = 0
KPG1 210132Z 06009KT 36/13 A2986 RMK A01 T03570126  RH  025%=      5-min Rain = 0
KPG1 210133Z 06011G16KT 36/13 A2986 RMK A01 T03570127  RH  025%=      5-min Rain = 0
KPG1 210134Z 06015KT 36/13 A2986 RMK A01 T03560126  RH  025%=      5-min Rain = 0
KPG1 210135Z 06014KT 36/13 A2986 RMK A01 T03560126  RH  025%=      5-min Rain = 0
KPG1 210136Z 06012KT 36/13 A2986 RMK A01 T03560126  RH  025%=      5-min Rain = 0
KPG1 210137Z 04010KT 36/13 A2986 RMK A01 T03560127  RH  025%=      5-min Rain = 0
KPG1 210138Z 05010KT 36/13 A2986 RMK A01 T03550127  RH  025%=      5-min Rain = 0
KPG1 210139Z 05010KT 35/13 A2986 RMK A01 T03540127  RH  025%=      5-min Rain = 0
KPG1 210140Z 05008KT 35/13 A2986 RMK A01 T03540127  RH  025%=      5-min Rain = 0
KPG1 210141Z 05011G16KT 35/13 A2986 RMK A01 T03540127  RH  025%=      5-min Rain = 0
KPG1 210142Z 06015G20KT 35/13 A2986 RMK A01 T03540126  RH  025%=      5-min Rain = 0
KPG1 210143Z 06013KT 35/13 A2986 RMK A01 T03540125  RH  025%=      5-min Rain = 0
KPG1 210144Z 06010G15KT 35/13 A2986 RMK A01 T03540125  RH  025%=      5-min Rain = 0
KPG1 210145Z 06015KT 35/13 A2986 RMK A01 T03540125  RH  025%=      5-min Rain = 0
KPG1 210146Z 06014KT 35/13 A2986 RMK A01 T03540125  RH  025%=      5-min Rain = 0
KPG1 210147Z 06014KT 35/13 A2986 RMK A01 T03540126  RH  025%=      5-min Rain = 0
KPG1 210148Z 06013KT 35/13 A2986 RMK A01 T03530126  RH  025%=      5-min Rain = 0
KPG1 210149Z 06014G19KT 35/13 A2986 RMK A01 T03530127  RH  026%=      5-min Rain = 0
KPG1 210150Z 06012KT 35/13 A2986 RMK A01 T03520126  RH  026%=      5-min Rain = 0
KPG1 210151Z 06012KT 35/13 A2986 RMK A01 T03520127  RH  026%=      5-min Rain = 0
KPG1 210152Z 06015KT 35/13 A2986 RMK A01 T03510127  RH  026%=      5-min Rain = 0
KPG1 210153Z 06016KT 35/13 A2986 RMK A01 T03510127  RH  026%=      5-min Rain = 0
KPG1 210154Z 05012KT 35/13 A2986 RMK A01 T03510127  RH  026%=      5-min Rain = 0
KPG1 210155Z 04012KT 35/13 A2986 RMK A01 T03510127  RH  026%=      5-min Rain = 0
KPG1 210156Z 05010G16KT 35/13 A2986 RMK A01 T03510127  RH  026%=      5-min Rain = 0
KPG1 210157Z 06013KT 35/13 A2986 RMK A01 T03500127  RH  026%=      5-min Rain = 0
KPG1 210158Z 06011KT 35/13 A2986 RMK A01 T03500128  RH  026%=      5-min Rain = 0
KPG1 210159Z 05013KT 35/13 A2986 RMK A01 T03500128  RH  026%=      5-min Rain = 0
KPG1 210200Z 05011KT 35/13 A2986 RMK A01 T03490127  RH  026%=      5-min Rain = 0
KPG1 210201Z 06012KT 35/13 A2986 RMK A01 T03490128  RH  026%=      5-min Rain = 0
KPG1 210202Z 07012G18KT 35/13 A2986 RMK A01 T03490128  RH  026%=      5-min Rain = 0
KPG1 210203Z 05013KT 35/13 A2986 RMK A01 T03490128  RH  026%=      5-min Rain = 0
KPG1 210204Z 06012KT 35/13 A2987 RMK A01 T03480127  RH  026%=      5-min Rain = 0
KPG1 210205Z 06011KT 35/13 A2987 RMK A01 T03480128  RH  026%=      5-min Rain = 0
KPG1 210206Z 05011KT 35/13 A2987 RMK A01 T03480128  RH  026%=      5-min Rain = 0
KPG1 210207Z 06008G13KT 35/13 A2987 RMK A01 T03480128  RH  027%=      5-min Rain = 0
KPG1 210208Z 06010KT 35/13 A2987 RMK A01 T03470128  RH  027%=      5-min Rain = 0
KPG1 210209Z 04010KT 35/13 A2987 RMK A01 T03470128  RH  027%=      5-min Rain = 0
KPG1 210210Z 04009KT 35/13 A2987 RMK A01 T03470128  RH  027%=      5-min Rain = 0
KPG1 210211Z 05008KT 35/13 A2987 RMK A01 T03460128  RH  027%=      5-min Rain = 0
KPG1 210212Z 06010KT 35/13 A2987 RMK A01 T03450129  RH  027%=      5-min Rain = 0
KPG1 210213Z 06010KT 35/13 A2987 RMK A01 T03450128  RH  027%=      5-min Rain = 0
KPG1 210214Z 05008KT 35/13 A2987 RMK A01 T03450128  RH  027%=      5-min Rain = 0
KPG1 210215Z 04008KT 35/13 A2987 RMK A01 T03450129  RH  027%=      5-min Rain = 0
KPG1 210216Z 05010G15KT 34/13 A2987 RMK A01 T03440128  RH  027%=      5-min Rain = 0
KPG1 210217Z 04009KT 34/13 A2987 RMK A01 T03440128  RH  027%=      5-min Rain = 0
KPG1 210218Z 05008KT 34/13 A2987 RMK A01 T03440128  RH  027%=      5-min Rain = 0
KPG1 210219Z 05007KT 34/13 A2987 RMK A01 T03440128  RH  027%=      5-min Rain = 0
KPG1 210220Z 05010KT 34/13 A2987 RMK A01 T03430128  RH  027%=      5-min Rain = 0
KPG1 210221Z 06011KT 34/13 A2987 RMK A01 T03430128  RH  027%=      5-min Rain = 0
KPG1 210222Z 06009KT 34/13 A2987 RMK A01 T03430128  RH  027%=      5-min Rain = 0
KPG1 210223Z 07012KT 34/13 A2987 RMK A01 T03430128  RH  027%=      5-min Rain = 0
KPG1 210224Z 05009KT 34/13 A2987 RMK A01 T03430128  RH  027%=      5-min Rain = 0
KPG1 210225Z 04010KT 34/13 A2987 RMK A01 T03430128  RH  027%=      5-min Rain = 0
KPG1 210226Z 06007KT 34/13 A2987 RMK A01 T03420128  RH  027%=      5-min Rain = 0
KPG1 210227Z 04008KT 34/13 A2987 RMK A01 T03420128  RH  028%=      5-min Rain = 0
KPG1 210228Z 04010KT 34/13 A2987 RMK A01 T03420128  RH  028%=      5-min Rain = 0
KPG1 210229Z 03009KT 34/13 A2987 RMK A01 T03420128  RH  028%=      5-min Rain = 0
KPG1 210230Z 04008KT 34/13 A2987 RMK A01 T03410128  RH  028%=      5-min Rain = 0
KPG1 210231Z 05009KT 34/13 A2987 RMK A01 T03400128  RH  028%=      5-min Rain = 0
KPG1 210232Z 04008KT 34/13 A2987 RMK A01 T03400128  RH  028%=      5-min Rain = 0
KPG1 210233Z 05007KT 34/13 A2987 RMK A01 T03400128  RH  028%=      5-min Rain = 0
KPG1 210234Z 04008KT 34/13 A2987 RMK A01 T03400128  RH  028%=      5-min Rain = 0
KPG1 210235Z 05009KT 34/13 A2987 RMK A01 T03390127  RH  028%=      5-min Rain = 0
KPG1 210236Z 05008KT 34/13 A2987 RMK A01 T03390127  RH  028%=      5-min Rain = 0
KPG1 210237Z 06008KT 34/13 A2987 RMK A01 T03390127  RH  028%=      5-min Rain = 0
KPG1 210238Z 06008KT 34/13 A2987 RMK A01 T03380126  RH  028%=      5-min Rain = 0
KPG1 210239Z 05007KT 34/13 A2988 RMK A01 T03380127  RH  028%=      5-min Rain = 0
KPG1 210240Z 04005KT 34/13 A2988 RMK A01 T03380127  RH  028%=      5-min Rain = 0
KPG1 210241Z 04008KT 34/13 A2988 RMK A01 T03370127  RH  028%=      5-min Rain = 0
KPG1 210242Z 05007KT 34/13 A2988 RMK A01 T03370127  RH  028%=      5-min Rain = 0
KPG1 210243Z 04007KT 34/13 A2988 RMK A01 T03370126  RH  028%=      5-min Rain = 0
KPG1 210244Z 03008KT 34/13 A2988 RMK A01 T03370126  RH  028%=      5-min Rain = 0
KPG1 210245Z 04008KT 34/13 A2988 RMK A01 T03370126  RH  028%=      5-min Rain = 0
KPG1 210246Z 04008KT 34/13 A2988 RMK A01 T03360126  RH  028%=      5-min Rain = 0
KPG1 210247Z 05009KT 34/13 A2988 RMK A01 T03360126  RH  028%=      5-min Rain = 0
KPG1 210248Z 06008KT 34/13 A2988 RMK A01 T03360125  RH  028%=      5-min Rain = 0
KPG1 210249Z 04008KT 34/13 A2988 RMK A01 T03360125  RH  028%=      5-min Rain = 0
KPG1 210250Z 05008KT 34/13 A2988 RMK A01 T03360126  RH  028%=      5-min Rain = 0
KPG1 210251Z 04007KT 34/13 A2988 RMK A01 T03360125  RH  028%=      5-min Rain = 0
KPG1 210252Z 04008KT 34/13 A2988 RMK A01 T03360125  RH  028%=      5-min Rain = 0
KPG1 210253Z 05006KT 34/13 A2988 RMK A01 T03360125  RH  028%=      5-min Rain = 0
KPG1 210254Z 04008KT 34/13 A2988 RMK A01 T03350125  RH  028%=      5-min Rain = 0
KPG1 210255Z 04009KT 34/13 A2988 RMK A01 T03350125  RH  028%=      5-min Rain = 0
KPG1 210256Z 04006KT 33/13 A2988 RMK A01 T03340125  RH  028%=      5-min Rain = 0
KPG1 210257Z 06008KT 33/13 A2988 RMK A01 T03340125  RH  028%=      5-min Rain = 0
KPG1 210258Z 04006KT 33/13 A2988 RMK A01 T03340125  RH  028%=      5-min Rain = 0
KPG1 210259Z 05008KT 33/13 A2988 RMK A01 T03340125  RH  028%=      5-min Rain = 0
KPG1 210300Z 06008KT 33/13 A2988 RMK A01 T03330125  RH  028%=      5-min Rain = 0
KPG1 210301Z 05007KT 33/12 A2988 RMK A01 T03330124  RH  028%=      5-min Rain = 0
KPG1 210302Z 05007KT 33/13 A2988 RMK A01 T03330125  RH  028%=      5-min Rain = 0
KPG1 210303Z 04007KT 33/13 A2988 RMK A01 T03330125  RH  028%=      5-min Rain = 0
KPG1 210304Z 03008KT 33/13 A2988 RMK A01 T03330125  RH  028%=      5-min Rain = 0
KPG1 210305Z 02008KT 33/13 A2988 RMK A01 T03320125  RH  028%=      5-min Rain = 0
KPG1 210306Z 02008KT 33/13 A2989 RMK A01 T03320125  RH  028%=      5-min Rain = 0
KPG1 210307Z 03007KT 33/13 A2989 RMK A01 T03320125  RH  029%=      5-min Rain = 0
KPG1 210308Z 03008G13KT 33/13 A2989 RMK A01 T03310125  RH  029%=      5-min Rain = 0
KPG1 210309Z 03009KT 33/13 A2989 RMK A01 T03310125  RH  029%=      5-min Rain = 0
KPG1 210310Z 03008KT 33/13 A2989 RMK A01 T03310125  RH  029%=      5-min Rain = 0
KPG1 210311Z 03007KT 33/13 A2989 RMK A01 T03310125  RH  029%=      5-min Rain = 0
KPG1 210312Z 02009KT 33/13 A2989 RMK A01 T03310125  RH  029%=      5-min Rain = 0
KPG1 210313Z 03008KT 33/13 A2989 RMK A01 T03310126  RH  029%=      5-min Rain = 0
KPG1 210314Z 03008KT 33/13 A2989 RMK A01 T03310126  RH  029%=      5-min Rain = 0
KPG1 210315Z 04007KT 33/13 A2989 RMK A01 T03300126  RH  029%=      5-min Rain = 0
KPG1 210316Z 02007KT 33/13 A2989 RMK A01 T03290125  RH  029%=      5-min Rain = 0
KPG1 210317Z 03008KT 33/13 A2989 RMK A01 T03290126  RH  029%=      5-min Rain = 0
KPG1 210318Z 02008KT 33/13 A2989 RMK A01 T03290126  RH  029%=      5-min Rain = 0
KPG1 210319Z 02010KT 33/13 A2989 RMK A01 T03280126  RH  029%=      5-min Rain = 0
KPG1 210320Z 02008KT 33/13 A2989 RMK A01 T03280126  RH  029%=      5-min Rain = 0
KPG1 210321Z 02008KT 33/13 A2989 RMK A01 T03280126  RH  029%=      5-min Rain = 0
KPG1 210322Z 03008KT 33/13 A2989 RMK A01 T03280127  RH  029%=      5-min Rain = 0
KPG1 210323Z 01007KT 33/13 A2989 RMK A01 T03280127  RH  029%=      5-min Rain = 0
KPG1 210324Z 01007KT 33/13 A2989 RMK A01 T03270126  RH  030%=      5-min Rain = 0
KPG1 210325Z 02007KT 33/13 A2989 RMK A01 T03270127  RH  030%=      5-min Rain = 0
KPG1 210326Z 02009KT 33/13 A2989 RMK A01 T03270127  RH  030%=      5-min Rain = 0
KPG1 210327Z 03007KT 33/13 A299 RMK A01 T03260127  RH  030%=      5-min Rain = 0
KPG1 210328Z 01008KT 33/13 A299 RMK A01 T03270127  RH  030%=      5-min Rain = 0
KPG1 210329Z 02008KT 33/13 A299 RMK A01 T03260127  RH  030%=      5-min Rain = 0
KPG1 210330Z 01006KT 33/13 A299 RMK A01 T03260127  RH  030%=      5-min Rain = 0
KPG1 210331Z 01008KT 33/13 A299 RMK A01 T03260127  RH  030%=      5-min Rain = 0
KPG1 210332Z 00008KT 33/13 A299 RMK A01 T03250127  RH  030%=      5-min Rain = 0
KPG1 210333Z 01009KT 33/13 A299 RMK A01 T03250128  RH  030%=      5-min Rain = 0
KPG1 210334Z 01007KT 33/13 A299 RMK A01 T03250128  RH  030%=      5-min Rain = 0
KPG1 210335Z 01007KT 33/13 A299 RMK A01 T03250129  RH  030%=      5-min Rain = 0
KPG1 210336Z 01008KT 32/13 A299 RMK A01 T03240129  RH  031%=      5-min Rain = 0
KPG1 210337Z 00007KT 32/13 A299 RMK A01 T03240129  RH  031%=      5-min Rain = 0
KPG1 210338Z 00008KT 32/13 A299 RMK A01 T03240129  RH  031%=      5-min Rain = 0
KPG1 210339Z 36008KT 32/13 A299 RMK A01 T03240129  RH  031%=      5-min Rain = 0
KPG1 210340Z 35009KT 32/13 A299 RMK A01 T03240130  RH  031%=      5-min Rain = 0
KPG1 210341Z 35009KT 32/13 A299 RMK A01 T03230130  RH  031%=      5-min Rain = 0
KPG1 210342Z 35012KT 32/13 A299 RMK A01 T03230130  RH  031%=      5-min Rain = 0
KPG1 210343Z 35012KT 32/13 A299 RMK A01 T03240131  RH  031%=      5-min Rain = 0
KPG1 210344Z 36010KT 32/13 A299 RMK A01 T03240131  RH  031%=      5-min Rain = 0
KPG1 210345Z 35010KT 32/13 A299 RMK A01 T03240130  RH  031%=      5-min Rain = 0
KPG1 210346Z 35010KT 32/13 A299 RMK A01 T03240130  RH  031%=      5-min Rain = 0
KPG1 210347Z 35010KT 32/13 A299 RMK A01 T03240130  RH  031%=      5-min Rain = 0
KPG1 210348Z 01010KT 32/13 A299 RMK A01 T03240131  RH  031%=      5-min Rain = 0
KPG1 210349Z 35007KT 32/13 A2991 RMK A01 T03240131  RH  031%=      5-min Rain = 0
KPG1 210350Z 01007KT 32/13 A2991 RMK A01 T03230130  RH  031%=      5-min Rain = 0
KPG1 210351Z 01005KT 32/13 A2991 RMK A01 T03220130  RH  031%=      5-min Rain = 0
KPG1 210352Z 00008KT 32/13 A2991 RMK A01 T03210130  RH  031%=      5-min Rain = 0
KPG1 210353Z 00006KT 32/13 A2991 RMK A01 T03210130  RH  031%=      5-min Rain = 0
KPG1 210354Z 03006KT 32/13 A2991 RMK A01 T03210131  RH  031%=      5-min Rain = 0
KPG1 210355Z 02005KT 32/13 A2991 RMK A01 T03210130  RH  031%=      5-min Rain = 0
KPG1 210356Z 35008KT 32/13 A2991 RMK A01 T03200131  RH  032%=      5-min Rain = 0
KPG1 210357Z 01005KT 32/13 A2991 RMK A01 T03200132  RH  032%=      5-min Rain = 0
KPG1 210358Z 01006KT 32/13 A2991 RMK A01 T03200131  RH  032%=      5-min Rain = 0
KPG1 210359Z 35007KT 32/13 A2991 RMK A01 T03200132  RH  032%=      5-min Rain = 0
KPG1 210400Z 00009KT 32/13 A2991 RMK A01 T03190133  RH  032%=      5-min Rain = 0
KPG1 210401Z 00008KT 32/13 A2991 RMK A01 T03190133  RH  032%=      5-min Rain = 0
KPG1 210402Z 36008KT 32/13 A2991 RMK A01 T03190133  RH  032%=      5-min Rain = 0
KPG1 210403Z 00007KT 32/13 A2991 RMK A01 T03200134  RH  032%=      5-min Rain = 0
KPG1 210404Z 36007KT 32/13 A2991 RMK A01 T03200134  RH  032%=      5-min Rain = 0
KPG1 210405Z 00006KT 32/13 A2991 RMK A01 T03190134  RH  032%=      5-min Rain = 0
KPG1 210406Z 01006KT 32/13 A2991 RMK A01 T03190134  RH  033%=      5-min Rain = 0
KPG1 210407Z 01005KT 32/13 A2991 RMK A01 T03190134  RH  033%=      5-min Rain = 0
KPG1 210408Z 01005KT 32/13 A2991 RMK A01 T03180134  RH  033%=      5-min Rain = 0
KPG1 210409Z 04004KT 32/13 A2991 RMK A01 T03180134  RH  033%=      5-min Rain = 0
KPG1 210410Z 04004KT 32/13 A2991 RMK A01 T03160133  RH  033%=      5-min Rain = 0
KPG1 210411Z 03005KT 32/13 A2991 RMK A01 T03150133  RH  033%=      5-min Rain = 0
KPG1 210412Z 03005KT 31/13 A2991 RMK A01 T03140133  RH  033%=      5-min Rain = 0
KPG1 210413Z 03005KT 31/13 A2991 RMK A01 T03140134  RH  034%=      5-min Rain = 0
KPG1 210414Z 03005KT 31/13 A2991 RMK A01 T03130134  RH  034%=      5-min Rain = 0
KPG1 210415Z 03004KT 31/13 A2992 RMK A01 T03130134  RH  034%=      5-min Rain = 0
KPG1 210416Z 03006KT 31/14 A2992 RMK A01 T03120135  RH  034%=      5-min Rain = 0
KPG1 210417Z 03005KT 31/14 A2992 RMK A01 T03120136  RH  034%=      5-min Rain = 0
KPG1 210418Z 03005KT 31/14 A2992 RMK A01 T03120137  RH  034%=      5-min Rain = 0
KPG1 210419Z 02006KT 31/14 A2992 RMK A01 T03130137  RH  034%=      5-min Rain = 0
KPG1 210420Z 02006KT 31/14 A2992 RMK A01 T03130137  RH  034%=      5-min Rain = 0
KPG1 210421Z 02007KT 31/14 A2992 RMK A01 T03140138  RH  034%=      5-min Rain = 0
KPG1 210422Z 02007KT 31/14 A2992 RMK A01 T03140138  RH  034%=      5-min Rain = 0
KPG1 210423Z 03008KT 31/14 A2992 RMK A01 T03140139  RH  034%=      5-min Rain = 0
KPG1 210424Z 03008KT 31/14 A2992 RMK A01 T03140139  RH  034%=      5-min Rain = 0
KPG1 210425Z 03008KT 31/14 A2992 RMK A01 T03140139  RH  034%=      5-min Rain = 0
KPG1 210426Z 03007KT 31/14 A2992 RMK A01 T03140139  RH  035%=      5-min Rain = 0
KPG1 210427Z 03007KT 31/14 A2992 RMK A01 T03130139  RH  035%=      5-min Rain = 0
KPG1 210428Z 02008KT 31/14 A2992 RMK A01 T03120139  RH  035%=      5-min Rain = 0
KPG1 210429Z 02007KT 31/14 A2992 RMK A01 T03110140  RH  035%=      5-min Rain = 0
KPG1 210430Z 03006KT 31/14 A2992 RMK A01 T03110141  RH  035%=      5-min Rain = 0
KPG1 210431Z 04006KT 31/14 A2992 RMK A01 T03110140  RH  035%=      5-min Rain = 0
KPG1 210432Z 02006KT 31/14 A2992 RMK A01 T03110141  RH  036%=      5-min Rain = 0
KPG1 210433Z 02007KT 31/14 A2992 RMK A01 T03100142  RH  036%=      5-min Rain = 0
KPG1 210434Z 02007KT 31/14 A2992 RMK A01 T03100142  RH  036%=      5-min Rain = 0
KPG1 210435Z 04006KT 31/14 A2992 RMK A01 T03100142  RH  036%=      5-min Rain = 0
KPG1 210436Z 03007KT 31/14 A2992 RMK A01 T03090142  RH  036%=      5-min Rain = 0
KPG1 210437Z 02007KT 31/14 A2992 RMK A01 T03080143  RH  037%=      5-min Rain = 0
KPG1 210438Z 02008KT 31/14 A2992 RMK A01 T03090144  RH  037%=      5-min Rain = 0
KPG1 210439Z 03009KT 31/15 A2992 RMK A01 T03100145  RH  037%=      5-min Rain = 0
KPG1 210440Z 02009KT 31/14 A2992 RMK A01 T03110144  RH  036%=      5-min Rain = 0
KPG1 210441Z 02009KT 31/15 A2992 RMK A01 T03120145  RH  036%=      5-min Rain = 0
KPG1 210442Z 03008KT 31/15 A2992 RMK A01 T03130145  RH  036%=      5-min Rain = 0
KPG1 210443Z 02007KT 31/15 A2992 RMK A01 T03120145  RH  036%=      5-min Rain = 0
KPG1 210444Z 01008KT 31/15 A2992 RMK A01 T03120145  RH  036%=      5-min Rain = 0
KPG1 210445Z 02009KT 31/15 A2992 RMK A01 T03110145  RH  036%=      5-min Rain = 0
KPG1 210446Z 02008KT 31/15 A2992 RMK A01 T03110145  RH  036%=      5-min Rain = 0
KPG1 210447Z 02008KT 31/15 A2992 RMK A01 T03110145  RH  036%=      5-min Rain = 0
KPG1 210448Z 02008KT 31/15 A2992 RMK A01 T03110145  RH  037%=      5-min Rain = 0
KPG1 210449Z 02007KT 31/15 A2992 RMK A01 T03100145  RH  037%=      5-min Rain = 0
KPG1 210450Z 03006KT 31/15 A2992 RMK A01 T03090145  RH  037%=      5-min Rain = 0
KPG1 210451Z 02006KT 31/15 A2992 RMK A01 T03080145  RH  037%=      5-min Rain = 0
KPG1 210452Z 02008KT 31/15 A2992 RMK A01 T03080145  RH  037%=      5-min Rain = 0
KPG1 210453Z 01009KT 31/15 A2992 RMK A01 T03070145  RH  037%=      5-min Rain = 0
KPG1 210454Z 02009KT 31/15 A2992 RMK A01 T03080146  RH  037%=      5-min Rain = 0
KPG1 210455Z 01008KT 31/15 A2992 RMK A01 T03090146  RH  037%=      5-min Rain = 0
KPG1 210456Z 02007KT 31/15 A2992 RMK A01 T03090146  RH  037%=      5-min Rain = 0
KPG1 210457Z 02008KT 31/15 A2992 RMK A01 T03090146  RH  037%=      5-min Rain = 0
KPG1 210458Z 02007KT 31/15 A2992 RMK A01 T03080146  RH  037%=      5-min Rain = 0
KPG1 210459Z 02008KT 31/15 A2992 RMK A01 T03080146  RH  037%=      5-min Rain = 0

Page generated in 0.1257 seconds.